<?xml version='1.0' encoding='UTF-8'?><gpx version="1.1" creator="JPX - https://github.com/jenetics/jpx" xmlns="http://www.topografix.com/GPX/1/1"><trk><trkseg><trkpt lat="46.154885644468294" lon="9.761749265137341"><ele>270.2</ele><time>2026-04-12T13:48:47.004Z</time></trkpt><trkpt lat="46.15479997599309" lon="9.761756319635136"><ele>270.4</ele><time>2026-04-12T13:48:59.002Z</time></trkpt><trkpt lat="46.15466944624436" lon="9.761741965052213"><ele>270.6</ele><time>2026-04-12T13:49:01.001Z</time></trkpt><trkpt lat="46.15459218790556" lon="9.7617422258672"><ele>270.8</ele><time>2026-04-12T13:49:02.001Z</time></trkpt><trkpt lat="46.15450420462785" lon="9.761767587766427"><ele>271.0</ele><time>2026-04-12T13:49:03.001Z</time></trkpt><trkpt lat="46.154391451719384" lon="9.761766586175566"><ele>271.0</ele><time>2026-04-12T13:49:04.001Z</time></trkpt><trkpt lat="46.15426863615818" lon="9.761759072949435"><ele>271.0</ele><time>2026-04-12T13:49:05.001Z</time></trkpt><trkpt lat="46.15415752621566" lon="9.761761911870375"><ele>271.0</ele><time>2026-04-12T13:49:06.001Z</time></trkpt><trkpt lat="46.15406011906535" lon="9.76176385999765"><ele>271.0</ele><time>2026-04-12T13:49:07.001Z</time></trkpt><trkpt lat="46.15397938687906" lon="9.761760292226125"><ele>271.0</ele><time>2026-04-12T13:49:08.001Z</time></trkpt><trkpt lat="46.15390594346104" lon="9.761755571936389"><ele>271.5</ele><time>2026-04-12T13:49:09Z</time></trkpt><trkpt lat="46.153809762589425" lon="9.761820749776609"><ele>272.0</ele><time>2026-04-12T13:49:11Z</time></trkpt><trkpt lat="46.15380320098129" lon="9.762019458341182"><ele>272.5</ele><time>2026-04-12T13:49:13Z</time></trkpt><trkpt lat="46.15380899534418" lon="9.762164754725273"><ele>273.0</ele><time>2026-04-12T13:49:14Z</time></trkpt><trkpt lat="46.15379319044435" lon="9.762328989161054"><ele>273.5</ele><time>2026-04-12T13:49:15Z</time></trkpt><trkpt lat="46.15378746787805" lon="9.762517469141086"><ele>274.0</ele><time>2026-04-12T13:49:16Z</time></trkpt><trkpt lat="46.15378300448083" lon="9.7626853856195"><ele>274.5</ele><time>2026-04-12T13:49:17Z</time></trkpt><trkpt lat="46.153773314589614" lon="9.76283605859882"><ele>275.0</ele><time>2026-04-12T13:49:18Z</time></trkpt><trkpt lat="46.153794832836326" lon="9.762988096197438"><ele>275.4</ele><time>2026-04-12T13:49:19Z</time></trkpt><trkpt lat="46.15378594760088" lon="9.76312217605819"><ele>275.8</ele><time>2026-04-12T13:49:20Z</time></trkpt><trkpt lat="46.15378412783813" lon="9.763247971377867"><ele>276.2</ele><time>2026-04-12T13:49:21Z</time></trkpt><trkpt lat="46.1537803004141" lon="9.763382016274814"><ele>276.6</ele><time>2026-04-12T13:49:22Z</time></trkpt><trkpt lat="46.15376966282314" lon="9.763512885600308"><ele>277.0</ele><time>2026-04-12T13:49:23Z</time></trkpt><trkpt lat="46.15376227958707" lon="9.763639649982037"><ele>277.0</ele><time>2026-04-12T13:49:24Z</time></trkpt><trkpt lat="46.153755016584554" lon="9.763749149204637"><ele>277.0</ele><time>2026-04-12T13:49:25Z</time></trkpt><trkpt lat="46.15374904878507" lon="9.763871296247146"><ele>277.0</ele><time>2026-04-12T13:49:26Z</time></trkpt><trkpt lat="46.15374608218014" lon="9.763997988106548"><ele>277.0</ele><time>2026-04-12T13:49:27Z</time></trkpt><trkpt lat="46.15373049891621" lon="9.764145646905012"><ele>277.0</ele><time>2026-04-12T13:49:27.999Z</time></trkpt><trkpt lat="46.15371489083825" lon="9.764263503247228"><ele>277.0</ele><time>2026-04-12T13:49:28.999Z</time></trkpt><trkpt lat="46.153600235587405" lon="9.76430969936996"><ele>277.0</ele><time>2026-04-12T13:49:30.999Z</time></trkpt><trkpt lat="46.1535277295222" lon="9.764304240550818"><ele>277.0</ele><time>2026-04-12T13:49:31.999Z</time></trkpt><trkpt lat="46.153427066599455" lon="9.76427434200714"><ele>277.0</ele><time>2026-04-12T13:49:32.999Z</time></trkpt><trkpt lat="46.15331257012522" lon="9.764230999057641"><ele>277.0</ele><time>2026-04-12T13:49:33.999Z</time></trkpt><trkpt lat="46.15318119461107" lon="9.76417541510351"><ele>277.0</ele><time>2026-04-12T13:49:34.999Z</time></trkpt><trkpt lat="46.1530367297714" lon="9.764109540750498"><ele>277.66666666666663</ele><time>2026-04-12T13:49:35.999Z</time></trkpt><trkpt lat="46.152888963129136" lon="9.764062075905738"><ele>278.3333333333333</ele><time>2026-04-12T13:49:36.999Z</time></trkpt><trkpt lat="46.15271727126371" lon="9.76401050973711"><ele>279.0</ele><time>2026-04-12T13:49:37.999Z</time></trkpt><trkpt lat="46.152511627293784" lon="9.763943896857063"><ele>279.6666666666667</ele><time>2026-04-12T13:49:38.999Z</time></trkpt><trkpt lat="46.15231940151033" lon="9.763880787843739"><ele>280.33333333333337</ele><time>2026-04-12T13:49:39.999Z</time></trkpt><trkpt lat="46.15214110621155" lon="9.763830321086708"><ele>281.0</ele><time>2026-04-12T13:49:40.999Z</time></trkpt><trkpt lat="46.15198080084419" lon="9.763797324536146"><ele>281.0</ele><time>2026-04-12T13:49:41.999Z</time></trkpt><trkpt lat="46.151802443190746" lon="9.763785608139663"><ele>281.0</ele><time>2026-04-12T13:49:42.999Z</time></trkpt><trkpt lat="46.15162459821434" lon="9.763782329446336"><ele>281.0</ele><time>2026-04-12T13:49:43.999Z</time></trkpt><trkpt lat="46.15146853984831" lon="9.763775657721467"><ele>281.75</ele><time>2026-04-12T13:49:44.999Z</time></trkpt><trkpt lat="46.15133380405467" lon="9.763762493493141"><ele>282.5</ele><time>2026-04-12T13:49:45.999Z</time></trkpt><trkpt lat="46.15119505485989" lon="9.763751944007735"><ele>283.25</ele><time>2026-04-12T13:49:46.999Z</time></trkpt><trkpt lat="46.151048878730556" lon="9.763742552567699"><ele>284.0</ele><time>2026-04-12T13:49:47.999Z</time></trkpt><trkpt lat="46.150916824455706" lon="9.763741745188607"><ele>284.0</ele><time>2026-04-12T13:49:48.999Z</time></trkpt><trkpt lat="46.15080547214072" lon="9.763756296530257"><ele>284.0</ele><time>2026-04-12T13:49:49.999Z</time></trkpt><trkpt lat="46.15070092571714" lon="9.763770253280358"><ele>284.0</ele><time>2026-04-12T13:49:50.999Z</time></trkpt><trkpt lat="46.15063019468229" lon="9.763784782065933"><ele>284.0</ele><time>2026-04-12T13:49:51.999Z</time></trkpt><trkpt lat="46.15052486029526" lon="9.763817965915221"><ele>284.0</ele><time>2026-04-12T13:49:53.999Z</time></trkpt><trkpt lat="46.150442756691035" lon="9.763851613681625"><ele>284.5</ele><time>2026-04-12T13:49:55.999Z</time></trkpt><trkpt lat="46.15038621438734" lon="9.763995157901954"><ele>285.0</ele><time>2026-04-12T13:49:57.999Z</time></trkpt><trkpt lat="46.15039232537598" lon="9.764105490210792"><ele>285.5</ele><time>2026-04-12T13:49:58.999Z</time></trkpt><trkpt lat="46.150406748747706" lon="9.764231208991554"><ele>286.0</ele><time>2026-04-12T13:49:59.999Z</time></trkpt><trkpt lat="46.150424668628965" lon="9.764355241051728"><ele>286.5</ele><time>2026-04-12T13:50:00.999Z</time></trkpt><trkpt lat="46.15042810523828" lon="9.76447393184037"><ele>287.0</ele><time>2026-04-12T13:50:01.999Z</time></trkpt><trkpt lat="46.150386380363294" lon="9.76456413643508"><ele>287.5</ele><time>2026-04-12T13:50:03.999Z</time></trkpt><trkpt lat="46.15024847601805" lon="9.764613482896776"><ele>288.0</ele><time>2026-04-12T13:50:05.999Z</time></trkpt><trkpt lat="46.15013611784143" lon="9.764636081651123"><ele>288.5</ele><time>2026-04-12T13:50:06.999Z</time></trkpt><trkpt lat="46.15000148761101" lon="9.764671329635611"><ele>289.0</ele><time>2026-04-12T13:50:07.999Z</time></trkpt><trkpt lat="46.149863189517106" lon="9.764723143809624"><ele>290.66666666666663</ele><time>2026-04-12T13:50:08.999Z</time></trkpt><trkpt lat="46.149713506936166" lon="9.764791178334645"><ele>292.3333333333333</ele><time>2026-04-12T13:50:09.999Z</time></trkpt><trkpt lat="46.149575023915574" lon="9.764866676999214"><ele>294.0</ele><time>2026-04-12T13:50:10.999Z</time></trkpt><trkpt lat="46.14942939587271" lon="9.7649525039578"><ele>294.0</ele><time>2026-04-12T13:50:11.999Z</time></trkpt><trkpt lat="46.14929256263193" lon="9.765017698317946"><ele>294.0</ele><time>2026-04-12T13:50:12.999Z</time></trkpt><trkpt lat="46.14913072563703" lon="9.765101143111437"><ele>294.0</ele><time>2026-04-12T13:50:13.999Z</time></trkpt><trkpt lat="46.14900665309902" lon="9.765180998807917"><ele>296.0</ele><time>2026-04-12T13:50:14.999Z</time></trkpt><trkpt lat="46.14888337646957" lon="9.765251653125475"><ele>298.0</ele><time>2026-04-12T13:50:15.999Z</time></trkpt><trkpt lat="46.14874627178936" lon="9.765309144121385"><ele>300.0</ele><time>2026-04-12T13:50:16.999Z</time></trkpt><trkpt lat="46.14862560741622" lon="9.765368556097776"><ele>302.0</ele><time>2026-04-12T13:50:17.999Z</time></trkpt><trkpt lat="46.1485168317793" lon="9.765421981240586"><ele>302.0</ele><time>2026-04-12T13:50:18.999Z</time></trkpt><trkpt lat="46.14842515894176" lon="9.765479719654067"><ele>302.0</ele><time>2026-04-12T13:50:19.999Z</time></trkpt><trkpt lat="46.14832942996496" lon="9.765560244496493"><ele>302.0</ele><time>2026-04-12T13:50:20.999Z</time></trkpt><trkpt lat="46.14824684846777" lon="9.765717347624715"><ele>302.0</ele><time>2026-04-12T13:50:21.999Z</time></trkpt><trkpt lat="46.148187701435454" lon="9.765881225596303"><ele>303.33333333333337</ele><time>2026-04-12T13:50:22.999Z</time></trkpt><trkpt lat="46.14813044835881" lon="9.766022264290056"><ele>304.6666666666667</ele><time>2026-04-12T13:50:23.999Z</time></trkpt><trkpt lat="46.14808251100236" lon="9.766142741413349"><ele>306.0</ele><time>2026-04-12T13:50:24.999Z</time></trkpt><trkpt lat="46.14803457443534" lon="9.766234099192934"><ele>307.3333333333333</ele><time>2026-04-12T13:50:25.999Z</time></trkpt><trkpt lat="46.14797129159476" lon="9.76629223222019"><ele>308.66666666666663</ele><time>2026-04-12T13:50:26.999Z</time></trkpt><trkpt lat="46.147908076637115" lon="9.766322809271209"><ele>310.0</ele><time>2026-04-12T13:50:27.998Z</time></trkpt><trkpt lat="46.147777767449604" lon="9.766359027757018"><ele>310.25</ele><time>2026-04-12T13:50:29.998Z</time></trkpt><trkpt lat="46.14765284635056" lon="9.766336980424674"><ele>310.5</ele><time>2026-04-12T13:50:30.998Z</time></trkpt><trkpt lat="46.147521856032334" lon="9.766311818168642"><ele>310.75</ele><time>2026-04-12T13:50:31.998Z</time></trkpt><trkpt lat="46.14740349534689" lon="9.76633492566189"><ele>311.0</ele><time>2026-04-12T13:50:32.998Z</time></trkpt><trkpt lat="46.14733091256057" lon="9.766373805478594"><ele>316.0</ele><time>2026-04-12T13:50:33.998Z</time></trkpt><trkpt lat="46.14726201239132" lon="9.766432109902091"><ele>321.0</ele><time>2026-04-12T13:50:34.998Z</time></trkpt><trkpt lat="46.14723969448537" lon="9.766571607098369"><ele>326.0</ele><time>2026-04-12T13:50:35.998Z</time></trkpt><trkpt lat="46.14722616215447" lon="9.766711721324922"><ele>331.0</ele><time>2026-04-12T13:50:36.998Z</time></trkpt><trkpt lat="46.147237314822625" lon="9.766856365689105"><ele>336.0</ele><time>2026-04-12T13:50:37.998Z</time></trkpt><trkpt lat="46.147251412707966" lon="9.76705714216129"><ele>344.6666666666667</ele><time>2026-04-12T13:50:38.998Z</time></trkpt><trkpt lat="46.1472674677345" lon="9.767314651302215"><ele>353.33333333333337</ele><time>2026-04-12T13:50:39.998Z</time></trkpt><trkpt lat="46.14727222723951" lon="9.767575017843017"><ele>362.0</ele><time>2026-04-12T13:50:40.998Z</time></trkpt><trkpt lat="46.147269355053574" lon="9.767809966569994"><ele>365.6</ele><time>2026-04-12T13:50:42Z</time></trkpt><trkpt lat="46.14726430800736" lon="9.768023348304757"><ele>369.20000000000005</ele><time>2026-04-12T13:50:42.999Z</time></trkpt><trkpt lat="46.14726054983792" lon="9.76817984382643"><ele>372.8</ele><time>2026-04-12T13:50:43.999Z</time></trkpt><trkpt lat="46.14725139627643" lon="9.768309575168693"><ele>376.4</ele><time>2026-04-12T13:50:45Z</time></trkpt><trkpt lat="46.14722181847752" lon="9.76841613565399"><ele>380.0</ele><time>2026-04-12T13:50:46.999Z</time></trkpt><trkpt lat="46.14715383119326" lon="9.768380870890212"><ele>380.0</ele><time>2026-04-12T13:50:48.999Z</time></trkpt><trkpt lat="46.14713292867385" lon="9.768283454360043"><ele>380.0</ele><time>2026-04-12T13:50:49.999Z</time></trkpt><trkpt lat="46.14711246400141" lon="9.768135153307277"><ele>380.0</ele><time>2026-04-12T13:50:51Z</time></trkpt><trkpt lat="46.147080638194375" lon="9.767987126084924"><ele>380.0</ele><time>2026-04-12T13:50:51.999Z</time></trkpt><trkpt lat="46.14704684850738" lon="9.767837158156867"><ele>380.0</ele><time>2026-04-12T13:50:52.999Z</time></trkpt><trkpt lat="46.147003726728684" lon="9.767690782295789"><ele>377.0</ele><time>2026-04-12T13:50:53.999Z</time></trkpt><trkpt lat="46.14695879129503" lon="9.767550316753233"><ele>374.0</ele><time>2026-04-12T13:50:54.999Z</time></trkpt><trkpt lat="46.146920021417095" lon="9.767428739477758"><ele>371.0</ele><time>2026-04-12T13:50:55.999Z</time></trkpt><trkpt lat="46.14690659615081" lon="9.767322006063013"><ele>368.0</ele><time>2026-04-12T13:50:56.999Z</time></trkpt><trkpt lat="46.14686900339073" lon="9.767229144979842"><ele>365.0</ele><time>2026-04-12T13:50:58.999Z</time></trkpt><trkpt lat="46.14681597055188" lon="9.767298326940764"><ele>362.0</ele><time>2026-04-12T13:51:00.999Z</time></trkpt><trkpt lat="46.14681811694728" lon="9.767414447072339"><ele>362.0</ele><time>2026-04-12T13:51:01.999Z</time></trkpt><trkpt lat="46.14682828128402" lon="9.76756254871616"><ele>362.0</ele><time>2026-04-12T13:51:02.999Z</time></trkpt><trkpt lat="46.14685304839223" lon="9.767724479531301"><ele>362.0</ele><time>2026-04-12T13:51:03.999Z</time></trkpt><trkpt lat="46.146887806771375" lon="9.767898276501809"><ele>362.0</ele><time>2026-04-12T13:51:04.999Z</time></trkpt><trkpt lat="46.14691460814824" lon="9.768027144094457"><ele>362.0</ele><time>2026-04-12T13:51:05.999Z</time></trkpt><trkpt lat="46.14691597954265" lon="9.768168448949869"><ele>366.5</ele><time>2026-04-12T13:51:06.999Z</time></trkpt><trkpt lat="46.14689694498476" lon="9.768341466626994"><ele>371.0</ele><time>2026-04-12T13:51:07.999Z</time></trkpt><trkpt lat="46.146891360307905" lon="9.768568317168278"><ele>375.5</ele><time>2026-04-12T13:51:08.999Z</time></trkpt><trkpt lat="46.146885160619036" lon="9.76878681754842"><ele>380.0</ele><time>2026-04-12T13:51:09.999Z</time></trkpt><trkpt lat="46.14685271370135" lon="9.769010179700349"><ele>382.5</ele><time>2026-04-12T13:51:10.999Z</time></trkpt><trkpt lat="46.146823096144146" lon="9.769220688659626"><ele>385.0</ele><time>2026-04-12T13:51:11.999Z</time></trkpt><trkpt lat="46.14680783299651" lon="9.769401930083411"><ele>387.5</ele><time>2026-04-12T13:51:12.999Z</time></trkpt><trkpt lat="46.146824576507704" lon="9.769569569855125"><ele>390.0</ele><time>2026-04-12T13:51:13.999Z</time></trkpt><trkpt lat="46.14684343251836" lon="9.769753280436149"><ele>393.0</ele><time>2026-04-12T13:51:14.999Z</time></trkpt><trkpt lat="46.146839332005385" lon="9.769913067886483"><ele>396.0</ele><time>2026-04-12T13:51:15.999Z</time></trkpt><trkpt lat="46.146832278780835" lon="9.770082695159518"><ele>399.0</ele><time>2026-04-12T13:51:16.999Z</time></trkpt><trkpt lat="46.146852535084726" lon="9.770266296217402"><ele>402.0</ele><time>2026-04-12T13:51:17.999Z</time></trkpt><trkpt lat="46.14688594628448" lon="9.770470715519414"><ele>406.66666666666663</ele><time>2026-04-12T13:51:18.999Z</time></trkpt><trkpt lat="46.146929903949655" lon="9.770707172882"><ele>411.3333333333333</ele><time>2026-04-12T13:51:19.999Z</time></trkpt><trkpt lat="46.14696702097205" lon="9.770946370909497"><ele>416.0</ele><time>2026-04-12T13:51:20.999Z</time></trkpt><trkpt lat="46.14699023149526" lon="9.771159991569286"><ele>419.0</ele><time>2026-04-12T13:51:21.999Z</time></trkpt><trkpt lat="46.14700903845413" lon="9.771403717535462"><ele>422.0</ele><time>2026-04-12T13:51:22.999Z</time></trkpt><trkpt lat="46.14700786085419" lon="9.771684026678738"><ele>425.0</ele><time>2026-04-12T13:51:23.999Z</time></trkpt><trkpt lat="46.14702645129972" lon="9.771965961965982"><ele>428.5</ele><time>2026-04-12T13:51:24.999Z</time></trkpt><trkpt lat="46.147047865597706" lon="9.772194813141951"><ele>432.0</ele><time>2026-04-12T13:51:25.999Z</time></trkpt><trkpt lat="46.14707485029812" lon="9.772375833176486"><ele>435.5</ele><time>2026-04-12T13:51:26.999Z</time></trkpt><trkpt lat="46.14713211629687" lon="9.77252105916609"><ele>439.0</ele><time>2026-04-12T13:51:28.999Z</time></trkpt><trkpt lat="46.14706076333755" lon="9.772568379744872"><ele>439.0</ele><time>2026-04-12T13:51:31.999Z</time></trkpt><trkpt lat="46.14696178201435" lon="9.772359252203762"><ele>439.0</ele><time>2026-04-12T13:51:33.999Z</time></trkpt><trkpt lat="46.146916844247066" lon="9.772195085946482"><ele>439.0</ele><time>2026-04-12T13:51:34.999Z</time></trkpt><trkpt lat="46.146870395049696" lon="9.772010853126565"><ele>439.0</ele><time>2026-04-12T13:51:35.999Z</time></trkpt><trkpt lat="46.146816908280044" lon="9.771798279866044"><ele>434.33333333333337</ele><time>2026-04-12T13:51:36.999Z</time></trkpt><trkpt lat="46.146753799415755" lon="9.771552760353275"><ele>429.66666666666663</ele><time>2026-04-12T13:51:37.999Z</time></trkpt><trkpt lat="46.14671085593589" lon="9.77134558220378"><ele>425.0</ele><time>2026-04-12T13:51:38.999Z</time></trkpt><trkpt lat="46.146686452232885" lon="9.771151836746775"><ele>422.75</ele><time>2026-04-12T13:51:39.999Z</time></trkpt><trkpt lat="46.146636997073635" lon="9.77098700180572"><ele>420.5</ele><time>2026-04-12T13:51:40.999Z</time></trkpt><trkpt lat="46.14652509389765" lon="9.770820644295698"><ele>418.25</ele><time>2026-04-12T13:51:41.999Z</time></trkpt><trkpt lat="46.146447664621185" lon="9.770644925940974"><ele>416.0</ele><time>2026-04-12T13:51:42.999Z</time></trkpt><trkpt lat="46.146411534356766" lon="9.770521714337203"><ele>428.20000000000005</ele><time>2026-04-12T13:51:43.999Z</time></trkpt><trkpt lat="46.14638860138542" lon="9.770402626054222"><ele>440.40000000000003</ele><time>2026-04-12T13:51:44.999Z</time></trkpt><trkpt lat="46.1463189865742" lon="9.77035694460122"><ele>452.6</ele><time>2026-04-12T13:51:46.999Z</time></trkpt><trkpt lat="46.14629019484995" lon="9.770510853136022"><ele>464.8</ele><time>2026-04-12T13:51:48.999Z</time></trkpt><trkpt lat="46.14631138491111" lon="9.770627214246105"><ele>477.0</ele><time>2026-04-12T13:51:49.999Z</time></trkpt><trkpt lat="46.146336211886684" lon="9.770769107222554"><ele>477.0</ele><time>2026-04-12T13:51:50.999Z</time></trkpt><trkpt lat="46.14634159244063" lon="9.77094906729291"><ele>477.0</ele><time>2026-04-12T13:51:51.999Z</time></trkpt><trkpt lat="46.146335156339084" lon="9.771157507734229"><ele>477.0</ele><time>2026-04-12T13:51:52.999Z</time></trkpt><trkpt lat="46.14638822254936" lon="9.771369315859317"><ele>477.0</ele><time>2026-04-12T13:51:53.999Z</time></trkpt><trkpt lat="46.14643425812125" lon="9.77158536241442"><ele>480.33333333333337</ele><time>2026-04-12T13:51:54.999Z</time></trkpt><trkpt lat="46.14644999293559" lon="9.771826557143253"><ele>483.6666666666667</ele><time>2026-04-12T13:51:55.999Z</time></trkpt><trkpt lat="46.14646122518658" lon="9.772082646771029"><ele>487.0</ele><time>2026-04-12T13:51:56.999Z</time></trkpt><trkpt lat="46.1464691278046" lon="9.772359231660918"><ele>491.33333333333337</ele><time>2026-04-12T13:51:57.999Z</time></trkpt><trkpt lat="46.14649431571929" lon="9.7726556458645"><ele>495.66666666666663</ele><time>2026-04-12T13:51:58.999Z</time></trkpt><trkpt lat="46.14650925885218" lon="9.772905026877277"><ele>500.0</ele><time>2026-04-12T13:51:59.999Z</time></trkpt><trkpt lat="46.14651037608938" lon="9.773094739608291"><ele>502.6</ele><time>2026-04-12T13:52:00.999Z</time></trkpt><trkpt lat="46.14654142875473" lon="9.773268983857774"><ele>505.2</ele><time>2026-04-12T13:52:01.999Z</time></trkpt><trkpt lat="46.14659808521173" lon="9.773433654819469"><ele>507.79999999999995</ele><time>2026-04-12T13:52:02.999Z</time></trkpt><trkpt lat="46.146627852313216" lon="9.773561205548402"><ele>510.4</ele><time>2026-04-12T13:52:03.999Z</time></trkpt><trkpt lat="46.146619517383414" lon="9.773701393285146"><ele>513.0</ele><time>2026-04-12T13:52:04.999Z</time></trkpt><trkpt lat="46.14658316115583" lon="9.773836328266668"><ele>504.25</ele><time>2026-04-12T13:52:05.999Z</time></trkpt><trkpt lat="46.14656626550847" lon="9.773990218381634"><ele>495.5</ele><time>2026-04-12T13:52:06.999Z</time></trkpt><trkpt lat="46.146602849648595" lon="9.774153792139568"><ele>486.75</ele><time>2026-04-12T13:52:07.999Z</time></trkpt><trkpt lat="46.146675562553696" lon="9.774295477894563"><ele>478.0</ele><time>2026-04-12T13:52:08.999Z</time></trkpt><trkpt lat="46.146749507369115" lon="9.774411321220553"><ele>478.0</ele><time>2026-04-12T13:52:09.999Z</time></trkpt><trkpt lat="46.14676387634094" lon="9.774529620127987"><ele>477.99999999999994</ele><time>2026-04-12T13:52:11.999Z</time></trkpt><trkpt lat="46.14667675350325" lon="9.774425636190319"><ele>477.99999999999994</ele><time>2026-04-12T13:52:14.999Z</time></trkpt><trkpt lat="46.14660800413399" lon="9.77434614595437"><ele>478.0</ele><time>2026-04-12T13:52:15.999Z</time></trkpt><trkpt lat="46.146529758776005" lon="9.774252588215768"><ele>478.0</ele><time>2026-04-12T13:52:16.999Z</time></trkpt><trkpt lat="46.14642539340413" lon="9.774178961593563"><ele>485.83333333333337</ele><time>2026-04-12T13:52:17.999Z</time></trkpt><trkpt lat="46.14633891361724" lon="9.774090343190121"><ele>493.6666666666667</ele><time>2026-04-12T13:52:18.999Z</time></trkpt><trkpt lat="46.14629335439674" lon="9.773980403249901"><ele>501.5</ele><time>2026-04-12T13:52:19.999Z</time></trkpt><trkpt lat="46.14629163369428" lon="9.773882849018394"><ele>509.33333333333337</ele><time>2026-04-12T13:52:20.999Z</time></trkpt><trkpt lat="46.14622844868942" lon="9.773878418310995"><ele>517.1666666666666</ele><time>2026-04-12T13:52:23.999Z</time></trkpt><trkpt lat="46.146257933374656" lon="9.7740010880887"><ele>525.0</ele><time>2026-04-12T13:52:24.999Z</time></trkpt><trkpt lat="46.14629220653081" lon="9.774144760971232"><ele>525.0</ele><time>2026-04-12T13:52:25.999Z</time></trkpt><trkpt lat="46.146330925029005" lon="9.774294004877236"><ele>525.0</ele><time>2026-04-12T13:52:26.999Z</time></trkpt><trkpt lat="46.14636255802772" lon="9.774450044613157"><ele>525.0</ele><time>2026-04-12T13:52:27.999Z</time></trkpt><trkpt lat="46.14639945184342" lon="9.77461554625954"><ele>525.0</ele><time>2026-04-12T13:52:28.999Z</time></trkpt><trkpt lat="46.14642608244521" lon="9.774779853441602"><ele>527.75</ele><time>2026-04-12T13:52:29.999Z</time></trkpt><trkpt lat="46.14640265286881" lon="9.774963780932808"><ele>530.5</ele><time>2026-04-12T13:52:30.999Z</time></trkpt><trkpt lat="46.14637715457763" lon="9.775160068347711"><ele>533.25</ele><time>2026-04-12T13:52:31.999Z</time></trkpt><trkpt lat="46.146360400508705" lon="9.775346997921686"><ele>536.0</ele><time>2026-04-12T13:52:32.999Z</time></trkpt><trkpt lat="46.14637427873409" lon="9.775508602967767"><ele>537.4</ele><time>2026-04-12T13:52:33.999Z</time></trkpt><trkpt lat="46.14639396949741" lon="9.775670352150929"><ele>538.8</ele><time>2026-04-12T13:52:34.999Z</time></trkpt><trkpt lat="46.14639680725485" lon="9.775833362767592"><ele>540.1999999999999</ele><time>2026-04-12T13:52:35.999Z</time></trkpt><trkpt lat="46.146354576090644" lon="9.77593936050525"><ele>541.6</ele><time>2026-04-12T13:52:37.999Z</time></trkpt><trkpt lat="46.14627865734089" lon="9.775869512386171"><ele>543.0</ele><time>2026-04-12T13:52:39.998Z</time></trkpt><trkpt lat="46.14625314552558" lon="9.77575722805232"><ele>543.0</ele><time>2026-04-12T13:52:40.998Z</time></trkpt><trkpt lat="46.146238202401314" lon="9.77563909834569"><ele>543.0</ele><time>2026-04-12T13:52:41.998Z</time></trkpt><trkpt lat="46.14621874418606" lon="9.775538428098734"><ele>543.0</ele><time>2026-04-12T13:52:42.998Z</time></trkpt><trkpt lat="46.14615302368341" lon="9.775537293611583"><ele>543.0</ele><time>2026-04-12T13:52:47.998Z</time></trkpt><trkpt lat="46.146184567149874" lon="9.775654383873055"><ele>543.0</ele><time>2026-04-12T13:52:49.998Z</time></trkpt><trkpt lat="46.14617635087962" lon="9.775784891438903"><ele>543.0</ele><time>2026-04-12T13:52:51.998Z</time></trkpt><trkpt lat="46.14615042331883" lon="9.775901950909113"><ele>543.0</ele><time>2026-04-12T13:52:53.998Z</time></trkpt><trkpt lat="46.14611262640164" lon="9.775992386686234"><ele>543.0</ele><time>2026-04-12T13:52:57.998Z</time></trkpt><trkpt lat="46.14612418686162" lon="9.776115946783635"><ele>543.0</ele><time>2026-04-12T13:53:00.998Z</time></trkpt><trkpt lat="46.14614478685261" lon="9.77624949108925"><ele>543.0</ele><time>2026-04-12T13:53:02.998Z</time></trkpt><trkpt lat="46.146179704300295" lon="9.77632806942509"><ele>543.0</ele><time>2026-04-12T13:53:03.998Z</time></trkpt><trkpt lat="46.14624527549419" lon="9.776464865937344"><ele>543.0</ele><time>2026-04-12T13:53:05.998Z</time></trkpt><trkpt lat="46.14625246758717" lon="9.776562493004677"><ele>545.1666666666666</ele><time>2026-04-12T13:53:06.998Z</time></trkpt><trkpt lat="46.14628026336744" lon="9.776699016910392"><ele>547.3333333333334</ele><time>2026-04-12T13:53:08.998Z</time></trkpt><trkpt lat="46.14629952475678" lon="9.776849411768746"><ele>549.5</ele><time>2026-04-12T13:53:11.998Z</time></trkpt><trkpt lat="46.146318257332574" lon="9.776978518574486"><ele>551.6666666666667</ele><time>2026-04-12T13:53:13.998Z</time></trkpt><trkpt lat="46.14632943074031" lon="9.77709465637582"><ele>553.8333333333334</ele><time>2026-04-12T13:53:15.998Z</time></trkpt><trkpt lat="46.14633895842096" lon="9.777196358294661"><ele>556.0</ele><time>2026-04-12T13:53:18.998Z</time></trkpt><trkpt lat="46.14630338459389" lon="9.777307444263458"><ele>558.1428571428571</ele><time>2026-04-12T13:53:20.998Z</time></trkpt><trkpt lat="46.146257088272534" lon="9.777409028150762"><ele>560.2857142857143</ele><time>2026-04-12T13:53:23.998Z</time></trkpt><trkpt lat="46.146237704136" lon="9.777503705149561"><ele>562.4285714285714</ele><time>2026-04-12T13:53:27.998Z</time></trkpt><trkpt lat="46.146180445144324" lon="9.77742202248089"><ele>564.5714285714286</ele><time>2026-04-12T13:53:34.998Z</time></trkpt><trkpt lat="46.14610903889666" lon="9.777377636890892"><ele>566.7142857142857</ele><time>2026-04-12T13:53:36.998Z</time></trkpt><trkpt lat="46.14604250658898" lon="9.777388007746932"><ele>568.8571428571429</ele><time>2026-04-12T13:53:39.998Z</time></trkpt><trkpt lat="46.14597696370128" lon="9.777402594231983"><ele>571.0</ele><time>2026-04-12T13:53:46.998Z</time></trkpt><trkpt lat="46.14591749087332" lon="9.77745959194137"><ele>571.0</ele><time>2026-04-12T13:53:58.998Z</time></trkpt><trkpt lat="46.14592075399743" lon="9.777556259990773"><ele>571.0</ele><time>2026-04-12T13:54:21.997Z</time></trkpt><trkpt lat="46.14590650695719" lon="9.777652705929755"><ele>571.0</ele><time>2026-04-12T13:54:30.997Z</time></trkpt><trkpt lat="46.14592107213809" lon="9.777761082064053"><ele>571.0</ele><time>2026-04-12T13:54:33.997Z</time></trkpt><trkpt lat="46.14590631126545" lon="9.777857592589884"><ele>571.0</ele><time>2026-04-12T13:54:35.997Z</time></trkpt><trkpt lat="46.145879099629646" lon="9.777995141608566"><ele>571.0</ele><time>2026-04-12T13:54:39.997Z</time></trkpt><trkpt lat="46.145834682675236" lon="9.778074486883812"><ele>572.6666666666667</ele><time>2026-04-12T13:54:42.997Z</time></trkpt><trkpt lat="46.145792484992214" lon="9.778155733879059"><ele>574.3333333333334</ele><time>2026-04-12T13:54:45.997Z</time></trkpt><trkpt lat="46.145761435639166" lon="9.778235793176062"><ele>576.0</ele><time>2026-04-12T13:54:49.997Z</time></trkpt><trkpt lat="46.145743581179154" lon="9.77834878142443"><ele>577.6666666666666</ele><time>2026-04-12T13:54:52.997Z</time></trkpt><trkpt lat="46.14573473558238" lon="9.778472316221599"><ele>579.3333333333333</ele><time>2026-04-12T13:54:55.997Z</time></trkpt><trkpt lat="46.14571312763301" lon="9.778597854951029"><ele>581.0</ele><time>2026-04-12T13:54:58.997Z</time></trkpt><trkpt lat="46.14571523954386" lon="9.778740628899962"><ele>583.5</ele><time>2026-04-12T13:55:01.997Z</time></trkpt><trkpt lat="46.14571442848187" lon="9.77883310851982"><ele>586.0</ele><time>2026-04-12T13:55:03.997Z</time></trkpt><trkpt lat="46.14573377833316" lon="9.778934698137133"><ele>588.5</ele><time>2026-04-12T13:55:05.997Z</time></trkpt><trkpt lat="46.14577972253328" lon="9.779033226144417"><ele>591.0</ele><time>2026-04-12T13:55:08.997Z</time></trkpt><trkpt lat="46.1458317472611" lon="9.779137062251035"><ele>593.5</ele><time>2026-04-12T13:55:11.997Z</time></trkpt><trkpt lat="46.145805869424684" lon="9.77925013513668"><ele>596.0</ele><time>2026-04-12T13:55:13.997Z</time></trkpt><trkpt lat="46.1457762033212" lon="9.779359888838368"><ele>597.2857142857142</ele><time>2026-04-12T13:55:16.997Z</time></trkpt><trkpt lat="46.14574778653891" lon="9.779449684053517"><ele>598.5714285714286</ele><time>2026-04-12T13:55:19.997Z</time></trkpt><trkpt lat="46.145720346666245" lon="9.779532972578208"><ele>599.8571428571429</ele><time>2026-04-12T13:55:26.997Z</time></trkpt><trkpt lat="46.145718827462645" lon="9.779634998272671"><ele>601.1428571428571</ele><time>2026-04-12T13:55:31.997Z</time></trkpt><trkpt lat="46.14569355933279" lon="9.779722909742162"><ele>602.4285714285714</ele><time>2026-04-12T13:55:34.997Z</time></trkpt><trkpt lat="46.14566878810387" lon="9.779841663235032"><ele>603.7142857142857</ele><time>2026-04-12T13:55:37.997Z</time></trkpt><trkpt lat="46.14566950051904" lon="9.7799399853433"><ele>605.0</ele><time>2026-04-12T13:55:40.996Z</time></trkpt><trkpt lat="46.14561266911251" lon="9.780021940489208"><ele>616.6</ele><time>2026-04-12T13:55:43.996Z</time></trkpt><trkpt lat="46.14554251488269" lon="9.780144934569366"><ele>628.2</ele><time>2026-04-12T13:55:46.996Z</time></trkpt><trkpt lat="46.145482717104734" lon="9.780303956319875"><ele>639.8</ele><time>2026-04-12T13:55:48.996Z</time></trkpt><trkpt lat="46.145446328247864" lon="9.780401143063422"><ele>651.4</ele><time>2026-04-12T13:55:51.996Z</time></trkpt><trkpt lat="46.14538584270635" lon="9.780468552812703"><ele>663.0</ele><time>2026-04-12T13:55:53.996Z</time></trkpt><trkpt lat="46.145371390445646" lon="9.78062801179611"><ele>663.0</ele><time>2026-04-12T13:55:56.996Z</time></trkpt><trkpt lat="46.14536400704821" lon="9.780771054451785"><ele>663.0</ele><time>2026-04-12T13:55:58.996Z</time></trkpt><trkpt lat="46.145329443825496" lon="9.780896802261717"><ele>663.0</ele><time>2026-04-12T13:56:01.996Z</time></trkpt><trkpt lat="46.14529835136003" lon="9.780993880204985"><ele>663.0</ele><time>2026-04-12T13:56:03.996Z</time></trkpt><trkpt lat="46.14526931826894" lon="9.78107563280683"><ele>663.0</ele><time>2026-04-12T13:56:04.996Z</time></trkpt><trkpt lat="46.145245898771236" lon="9.781217619830416"><ele>663.0</ele><time>2026-04-12T13:56:06.996Z</time></trkpt><trkpt lat="46.145199217010735" lon="9.78132045695021"><ele>661.0</ele><time>2026-04-12T13:56:08.996Z</time></trkpt><trkpt lat="46.145131592202084" lon="9.781399532724286"><ele>659.0</ele><time>2026-04-12T13:56:11.996Z</time></trkpt><trkpt lat="46.14507255639623" lon="9.781351362641523"><ele>657.0</ele><time>2026-04-12T13:56:20.996Z</time></trkpt><trkpt lat="46.145055433715186" lon="9.78144160414055"><ele>655.0</ele><time>2026-04-12T13:56:22.996Z</time></trkpt><trkpt lat="46.14500896882324" lon="9.781533276091203"><ele>653.0</ele><time>2026-04-12T13:56:25.996Z</time></trkpt><trkpt lat="46.144951946128245" lon="9.781610174983673"><ele>651.0</ele><time>2026-04-12T13:56:28.996Z</time></trkpt><trkpt lat="46.14491194340631" lon="9.781514995367024"><ele>659.0</ele><time>2026-04-12T13:56:36.996Z</time></trkpt><trkpt lat="46.1448343942372" lon="9.781577102026851"><ele>667.0</ele><time>2026-04-12T13:56:41.996Z</time></trkpt><trkpt lat="46.14476940310662" lon="9.78161606270864"><ele>675.0</ele><time>2026-04-12T13:56:44.996Z</time></trkpt><trkpt lat="46.14469720529244" lon="9.781568856481481"><ele>683.0</ele><time>2026-04-12T13:56:48.996Z</time></trkpt><trkpt lat="46.14469438271781" lon="9.781457730456076"><ele>691.0</ele><time>2026-04-12T13:56:50.996Z</time></trkpt><trkpt lat="46.14463685090379" lon="9.781417111816264"><ele>699.0</ele><time>2026-04-12T13:56:55.996Z</time></trkpt><trkpt lat="46.14457465860652" lon="9.781431630367187"><ele>707.0</ele><time>2026-04-12T13:57:01.996Z</time></trkpt><trkpt lat="46.144528468063626" lon="9.781369694596956"><ele>707.0</ele><time>2026-04-12T13:57:13.995Z</time></trkpt><trkpt lat="46.14451706252509" lon="9.78126912185465"><ele>707.0</ele><time>2026-04-12T13:57:17.995Z</time></trkpt><trkpt lat="46.144497798383675" lon="9.781163083177583"><ele>707.0</ele><time>2026-04-12T13:57:20.995Z</time></trkpt><trkpt lat="46.14450677985487" lon="9.78104767128588"><ele>707.0</ele><time>2026-04-12T13:57:25.995Z</time></trkpt><trkpt lat="46.1444438279375" lon="9.781051181710762"><ele>707.0</ele><time>2026-04-12T13:57:30.995Z</time></trkpt><trkpt lat="46.144386153736924" lon="9.780976286196006"><ele>707.0</ele><time>2026-04-12T13:57:37.995Z</time></trkpt><trkpt lat="46.14436078390091" lon="9.780887503217823"><ele>707.0</ele><time>2026-04-12T13:57:41.995Z</time></trkpt><trkpt lat="46.14433446550345" lon="9.780786468175851"><ele>707.0</ele><time>2026-04-12T13:57:44.995Z</time></trkpt><trkpt lat="46.14427714831266" lon="9.780724404122813"><ele>707.0</ele><time>2026-04-12T13:57:47.995Z</time></trkpt><trkpt lat="46.14426766604026" lon="9.780822042671156"><ele>707.0</ele><time>2026-04-12T13:57:51.995Z</time></trkpt><trkpt lat="46.144236691637275" lon="9.780923539653047"><ele>707.0</ele><time>2026-04-12T13:57:54.995Z</time></trkpt><trkpt lat="46.144181815951384" lon="9.781053985676596"><ele>707.0</ele><time>2026-04-12T13:57:56.995Z</time></trkpt><trkpt lat="46.14410117804316" lon="9.781061073206367"><ele>707.0</ele><time>2026-04-12T13:58:00.995Z</time></trkpt><trkpt lat="46.14411540312253" lon="9.780958367544226"><ele>709.0</ele><time>2026-04-12T13:58:05.995Z</time></trkpt><trkpt lat="46.144096021019216" lon="9.7808672995164"><ele>711.0</ele><time>2026-04-12T13:58:08.995Z</time></trkpt><trkpt lat="46.14411266958252" lon="9.780746184136776"><ele>713.0</ele><time>2026-04-12T13:58:12.995Z</time></trkpt><trkpt lat="46.14412805977743" lon="9.780624267688234"><ele>715.0</ele><time>2026-04-12T13:58:15.995Z</time></trkpt><trkpt lat="46.1441481971168" lon="9.780477174650029"><ele>717.0</ele><time>2026-04-12T13:58:18.995Z</time></trkpt><trkpt lat="46.14415294101518" lon="9.78037947862902"><ele>719.0</ele><time>2026-04-12T13:58:21.995Z</time></trkpt><trkpt lat="46.144176826813776" lon="9.780271480806428"><ele>723.5</ele><time>2026-04-12T13:58:23.995Z</time></trkpt><trkpt lat="46.14418509775012" lon="9.780175595144351"><ele>728.0</ele><time>2026-04-12T13:58:25.995Z</time></trkpt><trkpt lat="46.144204952844035" lon="9.78004519914257"><ele>732.5</ele><time>2026-04-12T13:58:28.995Z</time></trkpt><trkpt lat="46.144185173960565" lon="9.779944969332337"><ele>737.0</ele><time>2026-04-12T13:58:30.995Z</time></trkpt><trkpt lat="46.144238861788395" lon="9.77929435102486"><ele>737.8333333333333</ele><time>2026-04-12T13:58:32.995Z</time></trkpt><trkpt lat="46.14421507379766" lon="9.779205201714891"><ele>738.6666666666666</ele><time>2026-04-12T13:58:33.995Z</time></trkpt><trkpt lat="46.14417951834077" lon="9.779024797040567"><ele>739.5</ele><time>2026-04-12T13:58:35.995Z</time></trkpt><trkpt lat="46.14413602291491" lon="9.778933821079002"><ele>740.3333333333334</ele><time>2026-04-12T13:58:36.995Z</time></trkpt><trkpt lat="46.14409049690841" lon="9.778841844251508"><ele>741.1666666666667</ele><time>2026-04-12T13:58:37.994Z</time></trkpt><trkpt lat="46.14404168608437" lon="9.778778873797854"><ele>742.0</ele><time>2026-04-12T13:58:38.994Z</time></trkpt><trkpt lat="46.14397118560754" lon="9.778649716945234"><ele>755.0</ele><time>2026-04-12T13:58:40.994Z</time></trkpt><trkpt lat="46.143916070497106" lon="9.778767812388498"><ele>768.0</ele><time>2026-04-12T13:58:42.994Z</time></trkpt><trkpt lat="46.14387440991096" lon="9.778616755566961"><ele>781.0</ele><time>2026-04-12T13:58:43.994Z</time></trkpt><trkpt lat="46.14382010363689" lon="9.77845224128759"><ele>794.0</ele><time>2026-04-12T13:58:44.994Z</time></trkpt><trkpt lat="46.14378002119127" lon="9.778295304779062"><ele>794.0</ele><time>2026-04-12T13:58:45.994Z</time></trkpt><trkpt lat="46.14373509238993" lon="9.77817039879869"><ele>794.0</ele><time>2026-04-12T13:58:46.994Z</time></trkpt><trkpt lat="46.14368471041218" lon="9.778063744772663"><ele>794.0</ele><time>2026-04-12T13:58:47.994Z</time></trkpt><trkpt lat="46.14361069937834" lon="9.777954356062446"><ele>794.0</ele><time>2026-04-12T13:58:48.994Z</time></trkpt><trkpt lat="46.1435334689795" lon="9.777855992975667"><ele>794.0</ele><time>2026-04-12T13:58:49.994Z</time></trkpt><trkpt lat="46.143458137840064" lon="9.777745272346188"><ele>788.75</ele><time>2026-04-12T13:58:50.994Z</time></trkpt><trkpt lat="46.14340089983514" lon="9.77758183004414"><ele>783.5</ele><time>2026-04-12T13:58:51.994Z</time></trkpt><trkpt lat="46.14334905633314" lon="9.777398719689142"><ele>778.25</ele><time>2026-04-12T13:58:52.994Z</time></trkpt><trkpt lat="46.143321067728614" lon="9.77721106825953"><ele>773.0</ele><time>2026-04-12T13:58:53.994Z</time></trkpt><trkpt lat="46.14326662839288" lon="9.777001900592529"><ele>769.25</ele><time>2026-04-12T13:58:54.994Z</time></trkpt><trkpt lat="46.14327747960829" lon="9.776816910309893"><ele>765.5</ele><time>2026-04-12T13:58:55.994Z</time></trkpt><trkpt lat="46.14323953768459" lon="9.776587096544214"><ele>761.75</ele><time>2026-04-12T13:58:56.994Z</time></trkpt><trkpt lat="46.14318956314492" lon="9.776408563466207"><ele>758.0</ele><time>2026-04-12T13:58:57.994Z</time></trkpt><trkpt lat="46.14314090143445" lon="9.776281212024273"><ele>772.5</ele><time>2026-04-12T13:58:58.994Z</time></trkpt><trkpt lat="46.14307295074511" lon="9.7761142387417"><ele>787.0</ele><time>2026-04-12T13:58:59.994Z</time></trkpt><trkpt lat="46.14295333376888" lon="9.775935719971642"><ele>801.5</ele><time>2026-04-12T13:59:00.994Z</time></trkpt><trkpt lat="46.142873968155904" lon="9.77578928698054"><ele>816.0</ele><time>2026-04-12T13:59:01.994Z</time></trkpt><trkpt lat="46.14281759995005" lon="9.775676003012434"><ele>816.0</ele><time>2026-04-12T13:59:02.994Z</time></trkpt><trkpt lat="46.14280540805013" lon="9.775512097899664"><ele>816.0</ele><time>2026-04-12T13:59:03.994Z</time></trkpt><trkpt lat="46.14279154472473" lon="9.775367728613102"><ele>816.0</ele><time>2026-04-12T13:59:04.994Z</time></trkpt><trkpt lat="46.1427324712996" lon="9.775225440954271"><ele>816.0</ele><time>2026-04-12T13:59:05.994Z</time></trkpt><trkpt lat="46.14266455224702" lon="9.775097852293232"><ele>816.0</ele><time>2026-04-12T13:59:06.994Z</time></trkpt><trkpt lat="46.14257767888899" lon="9.774982778944093"><ele>813.5999999999999</ele><time>2026-04-12T13:59:07.994Z</time></trkpt><trkpt lat="46.142523230180956" lon="9.774850338229575"><ele>811.2</ele><time>2026-04-12T13:59:08.994Z</time></trkpt><trkpt lat="46.14251151006586" lon="9.774701485007624"><ele>808.8</ele><time>2026-04-12T13:59:09.994Z</time></trkpt><trkpt lat="46.142491081128874" lon="9.774546831914643"><ele>806.4000000000001</ele><time>2026-04-12T13:59:10.994Z</time></trkpt><trkpt lat="46.14243653926301" lon="9.774446023944062"><ele>804.0</ele><time>2026-04-12T13:59:11.994Z</time></trkpt><trkpt lat="46.1423519135354" lon="9.774363024619618"><ele>804.0</ele><time>2026-04-12T13:59:13.994Z</time></trkpt><trkpt lat="46.142340572620824" lon="9.77447512983952"><ele>804.0</ele><time>2026-04-12T13:59:18.994Z</time></trkpt><trkpt lat="46.14240028819178" lon="9.774723948511992"><ele>804.0</ele><time>2026-04-12T13:59:21.994Z</time></trkpt><trkpt lat="46.142405453004656" lon="9.774864864405183"><ele>804.0</ele><time>2026-04-12T13:59:22.994Z</time></trkpt><trkpt lat="46.142429097685266" lon="9.774976518165149"><ele>804.0</ele><time>2026-04-12T13:59:23.994Z</time></trkpt><trkpt lat="46.14237130410967" lon="9.775018539256765"><ele>814.2</ele><time>2026-04-12T13:59:24.994Z</time></trkpt><trkpt lat="46.14228537605488" lon="9.774977752614937"><ele>824.4000000000001</ele><time>2026-04-12T13:59:26.994Z</time></trkpt><trkpt lat="46.14224091732089" lon="9.774869341225473"><ele>834.6</ele><time>2026-04-12T13:59:27.994Z</time></trkpt><trkpt lat="46.14216899590322" lon="9.774745997247264"><ele>844.8</ele><time>2026-04-12T13:59:28.994Z</time></trkpt><trkpt lat="46.142087350413945" lon="9.774649586601607"><ele>855.0</ele><time>2026-04-12T13:59:29.994Z</time></trkpt><trkpt lat="46.14202445206608" lon="9.774611120093974"><ele>855.0</ele><time>2026-04-12T13:59:30.994Z</time></trkpt><trkpt lat="46.14201629281688" lon="9.774424639283705"><ele>855.0</ele><time>2026-04-12T13:59:32.994Z</time></trkpt><trkpt lat="46.142036614209395" lon="9.774235493058528"><ele>855.0</ele><time>2026-04-12T13:59:33.994Z</time></trkpt><trkpt lat="46.1420390864151" lon="9.774073891146552"><ele>855.0</ele><time>2026-04-12T13:59:34.994Z</time></trkpt><trkpt lat="46.14201559256098" lon="9.773976421141025"><ele>855.0</ele><time>2026-04-12T13:59:35.994Z</time></trkpt><trkpt lat="46.141958978725825" lon="9.773869463202487"><ele>853.0</ele><time>2026-04-12T13:59:36.994Z</time></trkpt><trkpt lat="46.141886206848596" lon="9.773765228598949"><ele>851.0</ele><time>2026-04-12T13:59:37.994Z</time></trkpt><trkpt lat="46.14180891114965" lon="9.773663913060258"><ele>849.0</ele><time>2026-04-12T13:59:38.994Z</time></trkpt><trkpt lat="46.14172487232045" lon="9.773583435431652"><ele>847.0</ele><time>2026-04-12T13:59:39.994Z</time></trkpt><trkpt lat="46.14165826851105" lon="9.773557748134655"><ele>845.0</ele><time>2026-04-12T13:59:41.994Z</time></trkpt><trkpt lat="46.14168016863542" lon="9.773716617902839"><ele>845.0000000000001</ele><time>2026-04-12T13:59:44.994Z</time></trkpt><trkpt lat="46.14171212570871" lon="9.773806824899683"><ele>845.0</ele><time>2026-04-12T13:59:45.994Z</time></trkpt><trkpt lat="46.141742003565305" lon="9.773929447049415"><ele>845.0</ele><time>2026-04-12T13:59:46.994Z</time></trkpt><trkpt lat="46.141757009291396" lon="9.774068239039753"><ele>845.0</ele><time>2026-04-12T13:59:47.994Z</time></trkpt><trkpt lat="46.14172585920846" lon="9.774168290627578"><ele>845.0000000000001</ele><time>2026-04-12T13:59:48.994Z</time></trkpt><trkpt lat="46.141674555221876" lon="9.774246721216176"><ele>845.0</ele><time>2026-04-12T13:59:49.994Z</time></trkpt><trkpt lat="46.141611224767345" lon="9.774337936324414"><ele>846.4285714285713</ele><time>2026-04-12T13:59:50.994Z</time></trkpt><trkpt lat="46.141552587090665" lon="9.774439248178941"><ele>847.8571428571429</ele><time>2026-04-12T13:59:51.994Z</time></trkpt><trkpt lat="46.14152081093042" lon="9.774521259365265"><ele>849.2857142857142</ele><time>2026-04-12T13:59:52.994Z</time></trkpt><trkpt lat="46.141472029154414" lon="9.774432883441925"><ele>850.7142857142857</ele><time>2026-04-12T13:59:55.994Z</time></trkpt><trkpt lat="46.14143160160603" lon="9.774347265926103"><ele>852.1428571428571</ele><time>2026-04-12T13:59:57.994Z</time></trkpt><trkpt lat="46.141388573590646" lon="9.774261192937262"><ele>853.5714285714286</ele><time>2026-04-12T13:59:58.994Z</time></trkpt><trkpt lat="46.14133905169167" lon="9.774195259082788"><ele>855.0</ele><time>2026-04-12T13:59:59.994Z</time></trkpt><trkpt lat="46.14128305216045" lon="9.774113670557643"><ele>860.4</ele><time>2026-04-12T14:00:00.994Z</time></trkpt><trkpt lat="46.14126304317835" lon="9.773969306282865"><ele>865.8</ele><time>2026-04-12T14:00:02.994Z</time></trkpt><trkpt lat="46.14128608189657" lon="9.773853320018182"><ele>871.2</ele><time>2026-04-12T14:00:04.994Z</time></trkpt><trkpt lat="46.14120186323944" lon="9.773803346125376"><ele>876.6</ele><time>2026-04-12T14:00:06.993Z</time></trkpt><trkpt lat="46.141100784815386" lon="9.773699748265942"><ele>882.0</ele><time>2026-04-12T14:00:08.993Z</time></trkpt><trkpt lat="46.14103075900475" lon="9.773637022075135"><ele>882.0</ele><time>2026-04-12T14:00:10.993Z</time></trkpt><trkpt lat="46.140956850891975" lon="9.773618009319089"><ele>882.0</ele><time>2026-04-12T14:00:12.993Z</time></trkpt><trkpt lat="46.140911751495295" lon="9.773712803411932"><ele>882.0</ele><time>2026-04-12T14:00:15.993Z</time></trkpt><trkpt lat="46.14084908391252" lon="9.773721729594229"><ele>882.0</ele><time>2026-04-12T14:00:17.993Z</time></trkpt><trkpt lat="46.14079672901374" lon="9.773799998412962"><ele>882.0</ele><time>2026-04-12T14:00:22.993Z</time></trkpt><trkpt lat="46.14071638544302" lon="9.773832053990757"><ele>882.0</ele><time>2026-04-12T14:00:25.993Z</time></trkpt><trkpt lat="46.14066129007977" lon="9.773876990746208"><ele>882.0</ele><time>2026-04-12T14:00:27.993Z</time></trkpt><trkpt lat="46.14058459210388" lon="9.773933920187018"><ele>887.0</ele><time>2026-04-12T14:00:29.993Z</time></trkpt><trkpt lat="46.14052550606899" lon="9.773973803910613"><ele>892.0</ele><time>2026-04-12T14:00:31.993Z</time></trkpt><trkpt lat="46.14044591153594" lon="9.774016473854745"><ele>897.0</ele><time>2026-04-12T14:00:35.993Z</time></trkpt><trkpt lat="46.14036820188466" lon="9.774015864921894"><ele>902.0</ele><time>2026-04-12T14:00:37.993Z</time></trkpt><trkpt lat="46.140317152466245" lon="9.7739516616787"><ele>907.0</ele><time>2026-04-12T14:00:38.993Z</time></trkpt><trkpt lat="46.14025771110714" lon="9.773894042519448"><ele>912.0</ele><time>2026-04-12T14:00:39.993Z</time></trkpt><trkpt lat="46.14015027006699" lon="9.773934528322012"><ele>912.0</ele><time>2026-04-12T14:00:41.993Z</time></trkpt><trkpt lat="46.14009293540925" lon="9.773980258647663"><ele>912.0</ele><time>2026-04-12T14:00:42.993Z</time></trkpt><trkpt lat="46.14005847412781" lon="9.774078473855077"><ele>912.0</ele><time>2026-04-12T14:00:44.993Z</time></trkpt><trkpt lat="46.14005850137978" lon="9.774177964707826"><ele>912.0</ele><time>2026-04-12T14:00:45.993Z</time></trkpt><trkpt lat="46.14003769448221" lon="9.77429118240349"><ele>912.0</ele><time>2026-04-12T14:00:47.993Z</time></trkpt><trkpt lat="46.13997089681015" lon="9.774337737924"><ele>912.0</ele><time>2026-04-12T14:00:48.993Z</time></trkpt><trkpt lat="46.13985153765761" lon="9.774413183643018"><ele>920.0</ele><time>2026-04-12T14:00:50.993Z</time></trkpt><trkpt lat="46.139778666230285" lon="9.77445402188287"><ele>928.0</ele><time>2026-04-12T14:00:51.993Z</time></trkpt><trkpt lat="46.13975801080277" lon="9.774571843461851"><ele>936.0</ele><time>2026-04-12T14:00:53.993Z</time></trkpt><trkpt lat="46.139805866549345" lon="9.774718343039076"><ele>944.0</ele><time>2026-04-12T14:00:55.993Z</time></trkpt><trkpt lat="46.13979960727269" lon="9.774840141961967"><ele>952.0</ele><time>2026-04-12T14:00:58.993Z</time></trkpt><trkpt lat="46.139702154073" lon="9.77487885787012"><ele>952.0</ele><time>2026-04-12T14:01:00.993Z</time></trkpt><trkpt lat="46.13963479863211" lon="9.77487715828665"><ele>952.0</ele><time>2026-04-12T14:01:01.993Z</time></trkpt><trkpt lat="46.13954402603818" lon="9.774850461229981"><ele>952.0</ele><time>2026-04-12T14:01:02.993Z</time></trkpt><trkpt lat="46.139380893164564" lon="9.774825264532954"><ele>952.0</ele><time>2026-04-12T14:01:03.993Z</time></trkpt><trkpt lat="46.13930589173354" lon="9.77483355342765"><ele>952.0</ele><time>2026-04-12T14:01:05.993Z</time></trkpt><trkpt lat="46.139321953429345" lon="9.774941793567224"><ele>951.9999999999999</ele><time>2026-04-12T14:01:07.993Z</time></trkpt><trkpt lat="46.139405547500864" lon="9.775018494838081"><ele>952.0</ele><time>2026-04-12T14:01:09.993Z</time></trkpt><trkpt lat="46.13946402496308" lon="9.775063504527113"><ele>952.0</ele><time>2026-04-12T14:01:10.993Z</time></trkpt><trkpt lat="46.13952429861929" lon="9.775150414568802"><ele>952.0</ele><time>2026-04-12T14:01:11.993Z</time></trkpt><trkpt lat="46.139615878873116" lon="9.77523567378531"><ele>951.9999999999999</ele><time>2026-04-12T14:01:12.993Z</time></trkpt><trkpt lat="46.13969512830546" lon="9.775262394184312"><ele>952.0</ele><time>2026-04-12T14:01:13.993Z</time></trkpt><trkpt lat="46.139772588224545" lon="9.775263404653654"><ele>960.8</ele><time>2026-04-12T14:01:14.993Z</time></trkpt><trkpt lat="46.13973085461564" lon="9.775369508594483"><ele>969.6</ele><time>2026-04-12T14:01:17.993Z</time></trkpt><trkpt lat="46.13965964516501" lon="9.775377739036246"><ele>978.3999999999999</ele><time>2026-04-12T14:01:19.993Z</time></trkpt><trkpt lat="46.13955518720102" lon="9.775350779797492"><ele>987.1999999999999</ele><time>2026-04-12T14:01:20.993Z</time></trkpt><trkpt lat="46.13946827297345" lon="9.775294831531696"><ele>996.0</ele><time>2026-04-12T14:01:21.993Z</time></trkpt><trkpt lat="46.13933514889023" lon="9.775275883995699"><ele>996.0</ele><time>2026-04-12T14:01:23.993Z</time></trkpt><trkpt lat="46.13923124470336" lon="9.77529426636739"><ele>995.9999999999999</ele><time>2026-04-12T14:01:24.993Z</time></trkpt><trkpt lat="46.13914815070895" lon="9.77528083369815"><ele>995.9999999999999</ele><time>2026-04-12T14:01:25.993Z</time></trkpt><trkpt lat="46.139080487598896" lon="9.775238252538335"><ele>996.0</ele><time>2026-04-12T14:01:26.993Z</time></trkpt><trkpt lat="46.138936903237074" lon="9.775288247295379"><ele>996.0</ele><time>2026-04-12T14:01:28.993Z</time></trkpt><trkpt lat="46.138871331280825" lon="9.77533028700994"><ele>996.0</ele><time>2026-04-12T14:01:29.993Z</time></trkpt><trkpt lat="46.138797696580454" lon="9.775387747239023"><ele>995.9999999999999</ele><time>2026-04-12T14:01:30.993Z</time></trkpt><trkpt lat="46.13882475938354" lon="9.775474991073745"><ele>995.9999999999999</ele><time>2026-04-12T14:01:34.993Z</time></trkpt><trkpt lat="46.138924366188014" lon="9.775574564046899"><ele>996.0</ele><time>2026-04-12T14:01:36.992Z</time></trkpt><trkpt lat="46.1390474154796" lon="9.775672889734858"><ele>996.0</ele><time>2026-04-12T14:01:38.992Z</time></trkpt><trkpt lat="46.13915341378251" lon="9.775730204412767"><ele>996.0</ele><time>2026-04-12T14:01:39.992Z</time></trkpt><trkpt lat="46.13928705766618" lon="9.775816707726394"><ele>995.9999999999999</ele><time>2026-04-12T14:01:40.992Z</time></trkpt><trkpt lat="46.139396314647215" lon="9.775871752460066"><ele>995.9999999999999</ele><time>2026-04-12T14:01:41.992Z</time></trkpt><trkpt lat="46.13947280687836" lon="9.775963441137915"><ele>996.0</ele><time>2026-04-12T14:01:42.992Z</time></trkpt><trkpt lat="46.139480020678334" lon="9.776072786460988"><ele>996.0</ele><time>2026-04-12T14:01:43.992Z</time></trkpt><trkpt lat="46.13949174174846" lon="9.776204874821182"><ele>1002.8333333333334</ele><time>2026-04-12T14:01:44.992Z</time></trkpt><trkpt lat="46.13949994076285" lon="9.776362751215025"><ele>1009.6666666666667</ele><time>2026-04-12T14:01:45.992Z</time></trkpt><trkpt lat="46.13953415496325" lon="9.776475833839832"><ele>1016.5</ele><time>2026-04-12T14:01:46.992Z</time></trkpt><trkpt lat="46.1395820655084" lon="9.7765577406324"><ele>1023.3333333333334</ele><time>2026-04-12T14:01:47.992Z</time></trkpt><trkpt lat="46.139644096739424" lon="9.77662195554177"><ele>1030.1666666666667</ele><time>2026-04-12T14:01:48.992Z</time></trkpt><trkpt lat="46.139699882192204" lon="9.776699283105481"><ele>1037.0</ele><time>2026-04-12T14:01:49.992Z</time></trkpt><trkpt lat="46.139763079390335" lon="9.776794935499202"><ele>1037.0</ele><time>2026-04-12T14:01:51.992Z</time></trkpt><trkpt lat="46.13968000572302" lon="9.776818447651099"><ele>1037.0</ele><time>2026-04-12T14:01:54.992Z</time></trkpt><trkpt lat="46.139632264426275" lon="9.776896964601942"><ele>1037.0</ele><time>2026-04-12T14:01:56.992Z</time></trkpt><trkpt lat="46.13967010384792" lon="9.777036584286183"><ele>1037.0</ele><time>2026-04-12T14:01:58.992Z</time></trkpt><trkpt lat="46.1397302299745" lon="9.77714212434983"><ele>1037.0</ele><time>2026-04-12T14:01:59.992Z</time></trkpt><trkpt lat="46.13976993655888" lon="9.77724707939026"><ele>1037.0</ele><time>2026-04-12T14:02:00.992Z</time></trkpt><trkpt lat="46.13980309772509" lon="9.777338353581971"><ele>1035.5</ele><time>2026-04-12T14:02:01.992Z</time></trkpt><trkpt lat="46.13984297534051" lon="9.777441731437598"><ele>1034.0</ele><time>2026-04-12T14:02:02.992Z</time></trkpt><trkpt lat="46.1398888966719" lon="9.777538997207241"><ele>1032.5</ele><time>2026-04-12T14:02:03.992Z</time></trkpt><trkpt lat="46.13993760338453" lon="9.77761132250162"><ele>1031.0</ele><time>2026-04-12T14:02:04.992Z</time></trkpt><trkpt lat="46.139992213481406" lon="9.777669133128443"><ele>1029.5</ele><time>2026-04-12T14:02:05.992Z</time></trkpt><trkpt lat="46.14008807880114" lon="9.777808318672346"><ele>1028.0</ele><time>2026-04-12T14:02:07.992Z</time></trkpt><trkpt lat="46.140106252508595" lon="9.777901441707854"><ele>1031.1666666666667</ele><time>2026-04-12T14:02:08.992Z</time></trkpt><trkpt lat="46.14009170130033" lon="9.778076742165094"><ele>1034.3333333333335</ele><time>2026-04-12T14:02:10.992Z</time></trkpt><trkpt lat="46.14010815262177" lon="9.778181580603135"><ele>1037.5</ele><time>2026-04-12T14:02:11.992Z</time></trkpt><trkpt lat="46.140148327494295" lon="9.778289754562849"><ele>1040.6666666666667</ele><time>2026-04-12T14:02:12.992Z</time></trkpt><trkpt lat="46.140202005634585" lon="9.778366067490317"><ele>1043.8333333333333</ele><time>2026-04-12T14:02:13.992Z</time></trkpt><trkpt lat="46.140208221742064" lon="9.778461211767791"><ele>1047.0</ele><time>2026-04-12T14:02:14.992Z</time></trkpt><trkpt lat="46.140186719483495" lon="9.778617982991884"><ele>1050.3333333333333</ele><time>2026-04-12T14:02:16.992Z</time></trkpt><trkpt lat="46.140152749131666" lon="9.77869797967852"><ele>1053.6666666666667</ele><time>2026-04-12T14:02:17.992Z</time></trkpt><trkpt lat="46.14010727407537" lon="9.778788353158477"><ele>1057.0</ele><time>2026-04-12T14:02:18.992Z</time></trkpt><trkpt lat="46.140068880079376" lon="9.778860863049289"><ele>1060.3333333333335</ele><time>2026-04-12T14:02:19.992Z</time></trkpt><trkpt lat="46.14006259334788" lon="9.77902367510631"><ele>1063.6666666666667</ele><time>2026-04-12T14:02:21.992Z</time></trkpt><trkpt lat="46.14007405812494" lon="9.779160342716656"><ele>1067.0</ele><time>2026-04-12T14:02:23.992Z</time></trkpt><trkpt lat="46.14006895888446" lon="9.779323213928933"><ele>1069.3333333333335</ele><time>2026-04-12T14:02:25.992Z</time></trkpt><trkpt lat="46.14003756198783" lon="9.77941324799496"><ele>1071.6666666666667</ele><time>2026-04-12T14:02:26.992Z</time></trkpt><trkpt lat="46.14003677861422" lon="9.779517410562098"><ele>1074.0</ele><time>2026-04-12T14:02:27.992Z</time></trkpt><trkpt lat="46.14002562457798" lon="9.779654046550661"><ele>1076.3333333333333</ele><time>2026-04-12T14:02:29.992Z</time></trkpt><trkpt lat="46.13998412749186" lon="9.77973879589562"><ele>1078.6666666666665</ele><time>2026-04-12T14:02:31.992Z</time></trkpt><trkpt lat="46.13994472726284" lon="9.779839506397906"><ele>1081.0</ele><time>2026-04-12T14:02:33.992Z</time></trkpt><trkpt lat="46.139924088284495" lon="9.779736543463809"><ele>1090.3333333333333</ele><time>2026-04-12T14:02:37.992Z</time></trkpt><trkpt lat="46.1398291088265" lon="9.779667900329486"><ele>1099.6666666666665</ele><time>2026-04-12T14:02:40.992Z</time></trkpt><trkpt lat="46.13975759417409" lon="9.77962885743237"><ele>1109.0</ele><time>2026-04-12T14:02:42.992Z</time></trkpt><trkpt lat="46.139716123095994" lon="9.779734148687066"><ele>1118.3333333333333</ele><time>2026-04-12T14:02:46.992Z</time></trkpt><trkpt lat="46.139714074060336" lon="9.779827468212996"><ele>1127.6666666666667</ele><time>2026-04-12T14:02:48.992Z</time></trkpt><trkpt lat="46.13962179562203" lon="9.779785961949507"><ele>1137.0</ele><time>2026-04-12T14:02:53.992Z</time></trkpt><trkpt lat="46.139557977217976" lon="9.779815631690164"><ele>1137.0</ele><time>2026-04-12T14:02:54.992Z</time></trkpt><trkpt lat="46.139456294780075" lon="9.77978420908884"><ele>1137.0</ele><time>2026-04-12T14:02:56.992Z</time></trkpt><trkpt lat="46.13940157307782" lon="9.779728275964063"><ele>1137.0</ele><time>2026-04-12T14:02:57.992Z</time></trkpt><trkpt lat="46.139312085916856" lon="9.779647258606808"><ele>1137.0</ele><time>2026-04-12T14:02:59.992Z</time></trkpt><trkpt lat="46.13922807789999" lon="9.77953112327143"><ele>1137.0</ele><time>2026-04-12T14:03:01.992Z</time></trkpt><trkpt lat="46.13916790084089" lon="9.779444962566195"><ele>1137.0</ele><time>2026-04-12T14:03:02.992Z</time></trkpt><trkpt lat="46.139075518268946" lon="9.77937655530501"><ele>1137.0</ele><time>2026-04-12T14:03:04.992Z</time></trkpt><trkpt lat="46.138925615076595" lon="9.779315818620606"><ele>1137.0</ele><time>2026-04-12T14:03:06.991Z</time></trkpt><trkpt lat="46.138835052766105" lon="9.779288883988807"><ele>1137.0</ele><time>2026-04-12T14:03:08.991Z</time></trkpt><trkpt lat="46.138763685948945" lon="9.779298519342193"><ele>1137.0</ele><time>2026-04-12T14:03:10.991Z</time></trkpt><trkpt lat="46.13863329571292" lon="9.77937384696029"><ele>1142.3333333333333</ele><time>2026-04-12T14:03:12.991Z</time></trkpt><trkpt lat="46.13857505757822" lon="9.779427438726126"><ele>1147.6666666666667</ele><time>2026-04-12T14:03:14.991Z</time></trkpt><trkpt lat="46.138588031313176" lon="9.779555929405081"><ele>1153.0</ele><time>2026-04-12T14:03:18.991Z</time></trkpt><trkpt lat="46.13865427299336" lon="9.779682769533016"><ele>1158.3333333333335</ele><time>2026-04-12T14:03:20.991Z</time></trkpt><trkpt lat="46.13871305045948" lon="9.77975805168269"><ele>1163.6666666666667</ele><time>2026-04-12T14:03:21.991Z</time></trkpt><trkpt lat="46.13878817938141" lon="9.779841586238613"><ele>1169.0</ele><time>2026-04-12T14:03:22.991Z</time></trkpt><trkpt lat="46.13885819667363" lon="9.779880759746376"><ele>1169.0</ele><time>2026-04-12T14:03:23.991Z</time></trkpt><trkpt lat="46.13890826540917" lon="9.779979874465129"><ele>1169.0</ele><time>2026-04-12T14:03:25.991Z</time></trkpt><trkpt lat="46.13892913919925" lon="9.780113067729074"><ele>1169.0</ele><time>2026-04-12T14:03:27.991Z</time></trkpt><trkpt lat="46.13885198478623" lon="9.780172987410827"><ele>1169.0</ele><time>2026-04-12T14:03:29.991Z</time></trkpt><trkpt lat="46.138783956890826" lon="9.780202960316087"><ele>1169.0</ele><time>2026-04-12T14:03:31.991Z</time></trkpt><trkpt lat="46.13867707153084" lon="9.780211604249905"><ele>1169.0</ele><time>2026-04-12T14:03:33.991Z</time></trkpt><trkpt lat="46.13859480264235" lon="9.780209810903136"><ele>1169.0</ele><time>2026-04-12T14:03:35.991Z</time></trkpt><trkpt lat="46.13846202628365" lon="9.780215208492537"><ele>1169.0</ele><time>2026-04-12T14:03:38.991Z</time></trkpt><trkpt lat="46.138327569128556" lon="9.78016869708136"><ele>1169.0</ele><time>2026-04-12T14:03:40.991Z</time></trkpt><trkpt lat="46.13824245803422" lon="9.780215860504148"><ele>1169.0</ele><time>2026-04-12T14:03:41.991Z</time></trkpt><trkpt lat="46.13819272109634" lon="9.780297734745663"><ele>1169.0</ele><time>2026-04-12T14:03:42.991Z</time></trkpt><trkpt lat="46.13811817659093" lon="9.780391885281922"><ele>1177.0</ele><time>2026-04-12T14:03:43.991Z</time></trkpt><trkpt lat="46.13806042573769" lon="9.78044894382855"><ele>1185.0</ele><time>2026-04-12T14:03:44.991Z</time></trkpt><trkpt lat="46.13794585224024" lon="9.780463081227772"><ele>1193.0</ele><time>2026-04-12T14:03:46.991Z</time></trkpt><trkpt lat="46.13788527392656" lon="9.780396303294642"><ele>1201.0</ele><time>2026-04-12T14:03:47.991Z</time></trkpt><trkpt lat="46.13775516826396" lon="9.78037877859836"><ele>1209.0</ele><time>2026-04-12T14:03:49.991Z</time></trkpt><trkpt lat="46.137648257184374" lon="9.780410160162996"><ele>1209.0</ele><time>2026-04-12T14:03:50.991Z</time></trkpt><trkpt lat="46.137579794294126" lon="9.780399441404604"><ele>1209.0</ele><time>2026-04-12T14:03:51.991Z</time></trkpt><trkpt lat="46.13751734040577" lon="9.78036726170198"><ele>1209.0</ele><time>2026-04-12T14:03:52.991Z</time></trkpt><trkpt lat="46.13745579665005" lon="9.780316664955139"><ele>1209.0</ele><time>2026-04-12T14:03:53.991Z</time></trkpt><trkpt lat="46.13736858215277" lon="9.780303626677144"><ele>1209.0</ele><time>2026-04-12T14:03:54.991Z</time></trkpt><trkpt lat="46.13723987698189" lon="9.780309129776699"><ele>1209.0</ele><time>2026-04-12T14:03:55.991Z</time></trkpt><trkpt lat="46.137122460542415" lon="9.780339294157358"><ele>1211.0</ele><time>2026-04-12T14:03:56.991Z</time></trkpt><trkpt lat="46.13700493163876" lon="9.780418606594857"><ele>1213.0</ele><time>2026-04-12T14:03:57.991Z</time></trkpt><trkpt lat="46.13693249971054" lon="9.780439489402896"><ele>1215.0</ele><time>2026-04-12T14:03:58.991Z</time></trkpt><trkpt lat="46.13685312651274" lon="9.780437866866444"><ele>1217.0</ele><time>2026-04-12T14:03:59.991Z</time></trkpt><trkpt lat="46.13678183350162" lon="9.780384739614556"><ele>1219.0</ele><time>2026-04-12T14:04:01.991Z</time></trkpt><trkpt lat="46.13673089056906" lon="9.780284591764715"><ele>1221.0</ele><time>2026-04-12T14:04:03.991Z</time></trkpt><trkpt lat="46.13672906084057" lon="9.780434025181055"><ele>1221.0</ele><time>2026-04-12T14:04:06.991Z</time></trkpt><trkpt lat="46.136738902009" lon="9.7805328400592"><ele>1221.0</ele><time>2026-04-12T14:04:07.991Z</time></trkpt><trkpt lat="46.13675944600088" lon="9.780640034470007"><ele>1221.0</ele><time>2026-04-12T14:04:08.991Z</time></trkpt><trkpt lat="46.13679137221013" lon="9.780734831430149"><ele>1221.0</ele><time>2026-04-12T14:04:09.991Z</time></trkpt><trkpt lat="46.13685321901713" lon="9.780799645773095"><ele>1221.0</ele><time>2026-04-12T14:04:11.991Z</time></trkpt><trkpt lat="46.136785130777646" lon="9.78084774849575"><ele>1221.0</ele><time>2026-04-12T14:04:13.991Z</time></trkpt><trkpt lat="46.13670356567704" lon="9.780748590187509"><ele>1221.0</ele><time>2026-04-12T14:04:15.991Z</time></trkpt><trkpt lat="46.13660466747002" lon="9.780656280646236"><ele>1221.0</ele><time>2026-04-12T14:04:17.991Z</time></trkpt><trkpt lat="46.136587922315684" lon="9.780759975788207"><ele>1221.0</ele><time>2026-04-12T14:04:21.991Z</time></trkpt><trkpt lat="46.136635570506556" lon="9.78088785596812"><ele>1221.0</ele><time>2026-04-12T14:04:22.991Z</time></trkpt><trkpt lat="46.136696934434845" lon="9.781046820536497"><ele>1221.0</ele><time>2026-04-12T14:04:23.991Z</time></trkpt><trkpt lat="46.136748084707875" lon="9.781145712817146"><ele>1224.8</ele><time>2026-04-12T14:04:24.991Z</time></trkpt><trkpt lat="46.136752168001074" lon="9.781331071506122"><ele>1228.6</ele><time>2026-04-12T14:04:26.991Z</time></trkpt><trkpt lat="46.13670021211743" lon="9.78140776686345"><ele>1232.4</ele><time>2026-04-12T14:04:27.991Z</time></trkpt><trkpt lat="46.13660909065694" lon="9.78148100535285"><ele>1236.2</ele><time>2026-04-12T14:04:28.991Z</time></trkpt><trkpt lat="46.13653646954503" lon="9.781584482611313"><ele>1240.0</ele><time>2026-04-12T14:04:29.991Z</time></trkpt><trkpt lat="46.13652474402821" lon="9.781709467548419"><ele>1244.6666666666665</ele><time>2026-04-12T14:04:30.991Z</time></trkpt><trkpt lat="46.13653317357593" lon="9.781850172021702"><ele>1249.3333333333333</ele><time>2026-04-12T14:04:31.991Z</time></trkpt><trkpt lat="46.136535805711326" lon="9.781995515127907"><ele>1254.0</ele><time>2026-04-12T14:04:32.991Z</time></trkpt><trkpt lat="46.13653916604136" lon="9.782120242461716"><ele>1258.6666666666667</ele><time>2026-04-12T14:04:33.991Z</time></trkpt><trkpt lat="46.13652115698117" lon="9.782217300562563"><ele>1263.3333333333335</ele><time>2026-04-12T14:04:34.99Z</time></trkpt><trkpt lat="46.13645814500745" lon="9.782209989913301"><ele>1268.0</ele><time>2026-04-12T14:04:36.99Z</time></trkpt><trkpt lat="46.13642043424608" lon="9.782060906967935"><ele>1268.0</ele><time>2026-04-12T14:04:38.99Z</time></trkpt><trkpt lat="46.13637306277695" lon="9.781958784812623"><ele>1268.0</ele><time>2026-04-12T14:04:39.99Z</time></trkpt><trkpt lat="46.13632951031557" lon="9.781892150696939"><ele>1268.0</ele><time>2026-04-12T14:04:40.99Z</time></trkpt><trkpt lat="46.13621230913579" lon="9.781944381211266"><ele>1268.0</ele><time>2026-04-12T14:04:42.99Z</time></trkpt><trkpt lat="46.136138078824786" lon="9.781997770888085"><ele>1268.0</ele><time>2026-04-12T14:04:43.99Z</time></trkpt><trkpt lat="46.136046684625256" lon="9.782071451526738"><ele>1268.0</ele><time>2026-04-12T14:04:44.99Z</time></trkpt><trkpt lat="46.13596620881838" lon="9.782134200654415"><ele>1268.0</ele><time>2026-04-12T14:04:45.99Z</time></trkpt><trkpt lat="46.13589607758162" lon="9.782163811054149"><ele>1268.0</ele><time>2026-04-12T14:04:46.99Z</time></trkpt><trkpt lat="46.13580892196672" lon="9.78218777049821"><ele>1268.0</ele><time>2026-04-12T14:04:47.99Z</time></trkpt><trkpt lat="46.13572102964344" lon="9.782231762833415"><ele>1268.0</ele><time>2026-04-12T14:04:48.99Z</time></trkpt><trkpt lat="46.1356463446764" lon="9.78227354952406"><ele>1268.0</ele><time>2026-04-12T14:04:49.99Z</time></trkpt><trkpt lat="46.135528867584775" lon="9.782243386033734"><ele>1270.0</ele><time>2026-04-12T14:04:51.99Z</time></trkpt><trkpt lat="46.1354324250377" lon="9.7821108817221"><ele>1272.0</ele><time>2026-04-12T14:04:53.99Z</time></trkpt><trkpt lat="46.13538384097251" lon="9.782034866360242"><ele>1274.0</ele><time>2026-04-12T14:04:54.99Z</time></trkpt><trkpt lat="46.13532427041349" lon="9.781934613550964"><ele>1276.0</ele><time>2026-04-12T14:04:55.99Z</time></trkpt><trkpt lat="46.135264215731624" lon="9.781830347596628"><ele>1278.0</ele><time>2026-04-12T14:04:56.99Z</time></trkpt><trkpt lat="46.13520316785434" lon="9.781728277020298"><ele>1278.0</ele><time>2026-04-12T14:04:57.99Z</time></trkpt><trkpt lat="46.13515271376923" lon="9.781623762761198"><ele>1278.0</ele><time>2026-04-12T14:04:58.99Z</time></trkpt><trkpt lat="46.13512055425785" lon="9.781517816153237"><ele>1278.0</ele><time>2026-04-12T14:04:59.99Z</time></trkpt><trkpt lat="46.13506905360469" lon="9.781454854646796"><ele>1278.0</ele><time>2026-04-12T14:05:00.99Z</time></trkpt><trkpt lat="46.13500392501136" lon="9.781426033058414"><ele>1278.0</ele><time>2026-04-12T14:05:01.99Z</time></trkpt><trkpt lat="46.13490661181188" lon="9.781450642808336"><ele>1278.0</ele><time>2026-04-12T14:05:02.99Z</time></trkpt><trkpt lat="46.13077570452041" lon="9.783015359165676"><ele>1304.2</ele><time>2026-04-12T14:06:29.989Z</time></trkpt><trkpt lat="46.130661555829306" lon="9.782986333024644"><ele>1330.4</ele><time>2026-04-12T14:06:30.989Z</time></trkpt><trkpt lat="46.13056821394734" lon="9.782963922239023"><ele>1356.6000000000001</ele><time>2026-04-12T14:06:31.989Z</time></trkpt><trkpt lat="46.13046963849645" lon="9.782948098534654"><ele>1382.8</ele><time>2026-04-12T14:06:32.989Z</time></trkpt><trkpt lat="46.1303593247118" lon="9.78298122535387"><ele>1409.0</ele><time>2026-04-12T14:06:33.989Z</time></trkpt><trkpt lat="46.13026361513238" lon="9.783056856278204"><ele>1409.0</ele><time>2026-04-12T14:06:34.989Z</time></trkpt><trkpt lat="46.130125445548124" lon="9.783122386277618"><ele>1409.0</ele><time>2026-04-12T14:06:35.989Z</time></trkpt><trkpt lat="46.12996373049598" lon="9.78320972717068"><ele>1409.0</ele><time>2026-04-12T14:06:36.989Z</time></trkpt><trkpt lat="46.129801968141" lon="9.78325690905321"><ele>1415.0</ele><time>2026-04-12T14:06:37.989Z</time></trkpt><trkpt lat="46.12966260684621" lon="9.783368064648865"><ele>1421.0</ele><time>2026-04-12T14:06:38.989Z</time></trkpt><trkpt lat="46.129529779604056" lon="9.783455406065434"><ele>1427.0</ele><time>2026-04-12T14:06:39.989Z</time></trkpt><trkpt lat="46.12935914101099" lon="9.783676786368959"><ele>1427.0</ele><time>2026-04-12T14:06:41.989Z</time></trkpt><trkpt lat="46.12929394533102" lon="9.78378299473091"><ele>1427.0</ele><time>2026-04-12T14:06:42.989Z</time></trkpt><trkpt lat="46.129234859527365" lon="9.783881103073517"><ele>1427.0</ele><time>2026-04-12T14:06:43.989Z</time></trkpt><trkpt lat="46.129186028768856" lon="9.783998057085743"><ele>1427.0</ele><time>2026-04-12T14:06:44.989Z</time></trkpt><trkpt lat="46.129131725163575" lon="9.784108309921905"><ele>1427.0</ele><time>2026-04-12T14:06:45.989Z</time></trkpt><trkpt lat="46.12909163686567" lon="9.784241374591053"><ele>1430.3333333333335</ele><time>2026-04-12T14:06:46.989Z</time></trkpt><trkpt lat="46.129071374095346" lon="9.78435808127488"><ele>1433.6666666666667</ele><time>2026-04-12T14:06:47.989Z</time></trkpt><trkpt lat="46.12907946966254" lon="9.784459269285167"><ele>1437.0</ele><time>2026-04-12T14:06:48.989Z</time></trkpt><trkpt lat="46.129096578660985" lon="9.784568820197615"><ele>1440.3333333333333</ele><time>2026-04-12T14:06:49.989Z</time></trkpt><trkpt lat="46.129132032024636" lon="9.784669644207973"><ele>1443.6666666666665</ele><time>2026-04-12T14:06:50.989Z</time></trkpt><trkpt lat="46.12908674280298" lon="9.78485711213082"><ele>1447.0</ele><time>2026-04-12T14:06:52.989Z</time></trkpt><trkpt lat="46.12900154172374" lon="9.784919427083402"><ele>1447.0</ele><time>2026-04-12T14:06:53.989Z</time></trkpt><trkpt lat="46.1288725186069" lon="9.784914680210465"><ele>1447.0</ele><time>2026-04-12T14:06:54.989Z</time></trkpt><trkpt lat="46.12872381020754" lon="9.78485942753457"><ele>1447.0</ele><time>2026-04-12T14:06:55.989Z</time></trkpt><trkpt lat="46.12862369719667" lon="9.784870231361536"><ele>1447.0</ele><time>2026-04-12T14:06:56.989Z</time></trkpt><trkpt lat="46.12851272851941" lon="9.784868896781118"><ele>1447.0</ele><time>2026-04-12T14:06:57.989Z</time></trkpt><trkpt lat="46.12840448078417" lon="9.784829853208322"><ele>1447.0</ele><time>2026-04-12T14:06:58.989Z</time></trkpt><trkpt lat="46.12830140087903" lon="9.784815121486833"><ele>1447.0</ele><time>2026-04-12T14:06:59.989Z</time></trkpt><trkpt lat="46.12819015408466" lon="9.78485178053059"><ele>1447.0</ele><time>2026-04-12T14:07:00.989Z</time></trkpt><trkpt lat="46.12795424599625" lon="9.784980710781344"><ele>1449.5</ele><time>2026-04-12T14:07:02.989Z</time></trkpt><trkpt lat="46.12784322557812" lon="9.785043060188755"><ele>1452.0</ele><time>2026-04-12T14:07:03.989Z</time></trkpt><trkpt lat="46.12775042292693" lon="9.785098183344319"><ele>1454.5</ele><time>2026-04-12T14:07:04.989Z</time></trkpt><trkpt lat="46.127681804985464" lon="9.785172250769826"><ele>1457.0</ele><time>2026-04-12T14:07:05.989Z</time></trkpt><trkpt lat="46.12765924425005" lon="9.785269725656065"><ele>1459.5</ele><time>2026-04-12T14:07:06.989Z</time></trkpt><trkpt lat="46.127642631058045" lon="9.785363581657053"><ele>1462.0</ele><time>2026-04-12T14:07:07.989Z</time></trkpt><trkpt lat="46.12771060939636" lon="9.785499284154062"><ele>1462.0</ele><time>2026-04-12T14:07:08.989Z</time></trkpt><trkpt lat="46.12776110343371" lon="9.78564029243322"><ele>1462.0</ele><time>2026-04-12T14:07:09.989Z</time></trkpt><trkpt lat="46.12780260320094" lon="9.785804116649441"><ele>1462.0</ele><time>2026-04-12T14:07:10.989Z</time></trkpt><trkpt lat="46.12783495830855" lon="9.78593320375591"><ele>1462.0</ele><time>2026-04-12T14:07:11.989Z</time></trkpt><trkpt lat="46.12786708152571" lon="9.786045222740391"><ele>1462.0</ele><time>2026-04-12T14:07:12.989Z</time></trkpt><trkpt lat="46.12787307506266" lon="9.786152310829324"><ele>1471.8</ele><time>2026-04-12T14:07:13.989Z</time></trkpt><trkpt lat="46.12785439211026" lon="9.78626687418007"><ele>1481.6</ele><time>2026-04-12T14:07:14.989Z</time></trkpt><trkpt lat="46.127787285278835" lon="9.78637143447097"><ele>1491.3999999999999</ele><time>2026-04-12T14:07:15.989Z</time></trkpt><trkpt lat="46.127715023368616" lon="9.786407349438637"><ele>1501.1999999999998</ele><time>2026-04-12T14:07:16.989Z</time></trkpt><trkpt lat="46.12763477449944" lon="9.786433219749352"><ele>1511.0</ele><time>2026-04-12T14:07:17.989Z</time></trkpt><trkpt lat="46.1275071645394" lon="9.78641941462903"><ele>1511.0</ele><time>2026-04-12T14:07:19.989Z</time></trkpt><trkpt lat="46.12745496187726" lon="9.786325899713756"><ele>1511.0</ele><time>2026-04-12T14:07:20.989Z</time></trkpt><trkpt lat="46.12741861022817" lon="9.78622729137311"><ele>1511.0</ele><time>2026-04-12T14:07:21.989Z</time></trkpt><trkpt lat="46.127209976213756" lon="9.786188186361997"><ele>1511.0</ele><time>2026-04-12T14:07:24.989Z</time></trkpt><trkpt lat="46.12712384366406" lon="9.786207213090606"><ele>1509.0</ele><time>2026-04-12T14:07:25.989Z</time></trkpt><trkpt lat="46.12704202643724" lon="9.78619064341102"><ele>1507.0</ele><time>2026-04-12T14:07:26.989Z</time></trkpt><trkpt lat="46.12694205348018" lon="9.786209750689"><ele>1505.0</ele><time>2026-04-12T14:07:27.989Z</time></trkpt><trkpt lat="46.126828321141126" lon="9.786267768536888"><ele>1503.0</ele><time>2026-04-12T14:07:28.989Z</time></trkpt><trkpt lat="46.12669925243946" lon="9.78632769781002"><ele>1501.0</ele><time>2026-04-12T14:07:29.989Z</time></trkpt><trkpt lat="46.12660447953113" lon="9.78637899073381"><ele>1497.8</ele><time>2026-04-12T14:07:30.989Z</time></trkpt><trkpt lat="46.126528465446114" lon="9.786416560039966"><ele>1494.6</ele><time>2026-04-12T14:07:31.989Z</time></trkpt><trkpt lat="46.126467071440395" lon="9.786392165395345"><ele>1491.4</ele><time>2026-04-12T14:07:32.989Z</time></trkpt><trkpt lat="46.12637479829671" lon="9.786361210335226"><ele>1488.2</ele><time>2026-04-12T14:07:34.988Z</time></trkpt><trkpt lat="46.12629364883095" lon="9.78644992075979"><ele>1485.0</ele><time>2026-04-12T14:07:35.988Z</time></trkpt><trkpt lat="46.12618364156111" lon="9.786562358215633"><ele>1485.0</ele><time>2026-04-12T14:07:36.988Z</time></trkpt><trkpt lat="46.12607474793071" lon="9.786651020887172"><ele>1485.0</ele><time>2026-04-12T14:07:37.988Z</time></trkpt><trkpt lat="46.12597677359112" lon="9.78678450827926"><ele>1485.0</ele><time>2026-04-12T14:07:38.988Z</time></trkpt><trkpt lat="46.125868974588094" lon="9.786883101157098"><ele>1485.0</ele><time>2026-04-12T14:07:39.988Z</time></trkpt><trkpt lat="46.12574446981827" lon="9.786930651955773"><ele>1494.0</ele><time>2026-04-12T14:07:40.988Z</time></trkpt><trkpt lat="46.125650026286934" lon="9.786991427347074"><ele>1503.0</ele><time>2026-04-12T14:07:41.988Z</time></trkpt><trkpt lat="46.12555696695255" lon="9.78710186609971"><ele>1512.0</ele><time>2026-04-12T14:07:42.988Z</time></trkpt><trkpt lat="46.12528250562131" lon="9.78717217735335"><ele>1512.0</ele><time>2026-04-12T14:07:44.988Z</time></trkpt><trkpt lat="46.125159005475886" lon="9.787233379879895"><ele>1512.0</ele><time>2026-04-12T14:07:45.988Z</time></trkpt><trkpt lat="46.12506109116243" lon="9.787404070215226"><ele>1512.0</ele><time>2026-04-12T14:07:46.988Z</time></trkpt><trkpt lat="46.12496619765194" lon="9.787449597255884"><ele>1512.0</ele><time>2026-04-12T14:07:47.988Z</time></trkpt><trkpt lat="46.12486291197356" lon="9.787500118993695"><ele>1510.6</ele><time>2026-04-12T14:07:48.988Z</time></trkpt><trkpt lat="46.12477926309256" lon="9.78758998755578"><ele>1509.1999999999998</ele><time>2026-04-12T14:07:49.988Z</time></trkpt><trkpt lat="46.12471429727742" lon="9.787702245713023"><ele>1507.8</ele><time>2026-04-12T14:07:50.988Z</time></trkpt><trkpt lat="46.12463616071539" lon="9.787828517373026"><ele>1506.4</ele><time>2026-04-12T14:07:51.988Z</time></trkpt><trkpt lat="46.12452865599399" lon="9.78789476598157"><ele>1505.0</ele><time>2026-04-12T14:07:52.988Z</time></trkpt><trkpt lat="46.12443471662865" lon="9.787928128635683"><ele>1514.0</ele><time>2026-04-12T14:07:53.988Z</time></trkpt><trkpt lat="46.1243251511567" lon="9.787994420168468"><ele>1523.0</ele><time>2026-04-12T14:07:54.988Z</time></trkpt><trkpt lat="46.124210390768575" lon="9.788049390740142"><ele>1532.0</ele><time>2026-04-12T14:07:55.988Z</time></trkpt><trkpt lat="46.12409900455546" lon="9.788137307695534"><ele>1541.0</ele><time>2026-04-12T14:07:56.988Z</time></trkpt><trkpt lat="46.12397199983957" lon="9.788213793218901"><ele>1541.5</ele><time>2026-04-12T14:07:57.988Z</time></trkpt><trkpt lat="46.12387258454166" lon="9.78828229916605"><ele>1542.0</ele><time>2026-04-12T14:07:58.988Z</time></trkpt><trkpt lat="46.12372761539423" lon="9.788328325702123"><ele>1542.5</ele><time>2026-04-12T14:07:59.988Z</time></trkpt><trkpt lat="46.123592786220264" lon="9.788382500148746"><ele>1543.0</ele><time>2026-04-12T14:08:00.988Z</time></trkpt><trkpt lat="46.12346244094512" lon="9.788429104632774"><ele>1543.0</ele><time>2026-04-12T14:08:01.988Z</time></trkpt><trkpt lat="46.12333333821229" lon="9.78846655139665"><ele>1543.0</ele><time>2026-04-12T14:08:02.988Z</time></trkpt><trkpt lat="46.12323276748539" lon="9.788505079701325"><ele>1543.0</ele><time>2026-04-12T14:08:03.988Z</time></trkpt><trkpt lat="46.12298667881897" lon="9.788433010398975"><ele>1542.8000000000002</ele><time>2026-04-12T14:08:05.988Z</time></trkpt><trkpt lat="46.12289095084694" lon="9.788373124281101"><ele>1542.6</ele><time>2026-04-12T14:08:06.988Z</time></trkpt><trkpt lat="46.122826881391674" lon="9.78835998046108"><ele>1542.4</ele><time>2026-04-12T14:08:07.988Z</time></trkpt><trkpt lat="46.12273650754996" lon="9.78838985056106"><ele>1542.1999999999998</ele><time>2026-04-12T14:08:09.988Z</time></trkpt><trkpt lat="46.12267493733369" lon="9.788415997092004"><ele>1542.0</ele><time>2026-04-12T14:08:13.988Z</time></trkpt><trkpt lat="46.12253671636289" lon="9.788441183900439"><ele>1542.0</ele><time>2026-04-12T14:08:15.988Z</time></trkpt><trkpt lat="46.12246596117057" lon="9.788463188412946"><ele>1542.0</ele><time>2026-04-12T14:08:17.988Z</time></trkpt><trkpt lat="46.122379489326946" lon="9.788495413869299"><ele>1542.0</ele><time>2026-04-12T14:08:20.988Z</time></trkpt><trkpt lat="46.122292404585174" lon="9.788534477883642"><ele>1542.0</ele><time>2026-04-12T14:08:24.988Z</time></trkpt><trkpt lat="46.12206648527935" lon="9.788499286845116"><ele>1544.5</ele><time>2026-04-12T14:08:28.988Z</time></trkpt><trkpt lat="46.121980596213795" lon="9.788565495989564"><ele>1547.0</ele><time>2026-04-12T14:08:31.988Z</time></trkpt><trkpt lat="46.1219135650886" lon="9.788553959644606"><ele>1549.5</ele><time>2026-04-12T14:08:33.988Z</time></trkpt><trkpt lat="46.1218407836782" lon="9.788526713761998"><ele>1552.0</ele><time>2026-04-12T14:08:36.988Z</time></trkpt><trkpt lat="46.12173972336669" lon="9.788526546937641"><ele>1554.5</ele><time>2026-04-12T14:08:39.988Z</time></trkpt><trkpt lat="46.121671520723865" lon="9.78849974387151"><ele>1557.0</ele><time>2026-04-12T14:08:40.988Z</time></trkpt><trkpt lat="46.121568165447556" lon="9.788449055873661"><ele>1558.25</ele><time>2026-04-12T14:08:42.988Z</time></trkpt><trkpt lat="46.121431613862526" lon="9.788407249399144"><ele>1559.5</ele><time>2026-04-12T14:08:43.988Z</time></trkpt><trkpt lat="46.1213262122152" lon="9.788369117325765"><ele>1560.75</ele><time>2026-04-12T14:08:44.988Z</time></trkpt><trkpt lat="46.12120404869986" lon="9.788327558561644"><ele>1562.0</ele><time>2026-04-12T14:08:45.988Z</time></trkpt><trkpt lat="46.12101348030689" lon="9.78833282344876"><ele>1562.0</ele><time>2026-04-12T14:08:47.988Z</time></trkpt><trkpt lat="46.120931570897405" lon="9.788365944015924"><ele>1562.0</ele><time>2026-04-12T14:08:48.988Z</time></trkpt><trkpt lat="46.12083744468017" lon="9.78840586607292"><ele>1562.0</ele><time>2026-04-12T14:08:49.988Z</time></trkpt><trkpt lat="46.120739117219166" lon="9.788454021795253"><ele>1562.0</ele><time>2026-04-12T14:08:50.988Z</time></trkpt><trkpt lat="46.120623221386026" lon="9.788489614935765"><ele>1562.0</ele><time>2026-04-12T14:08:51.988Z</time></trkpt><trkpt lat="46.12054452693336" lon="9.788507415496108"><ele>1562.8333333333333</ele><time>2026-04-12T14:08:52.988Z</time></trkpt><trkpt lat="46.120473360281615" lon="9.788544064157197"><ele>1563.6666666666665</ele><time>2026-04-12T14:08:53.988Z</time></trkpt><trkpt lat="46.12039971165751" lon="9.788546044559677"><ele>1564.5</ele><time>2026-04-12T14:08:54.988Z</time></trkpt><trkpt lat="46.12033029546395" lon="9.788534278325956"><ele>1565.3333333333335</ele><time>2026-04-12T14:08:55.988Z</time></trkpt><trkpt lat="46.120242488685726" lon="9.78851822866712"><ele>1566.1666666666667</ele><time>2026-04-12T14:08:56.988Z</time></trkpt><trkpt lat="46.120145879539386" lon="9.7884931121596"><ele>1567.0</ele><time>2026-04-12T14:08:57.988Z</time></trkpt><trkpt lat="46.120069813411796" lon="9.78843910015097"><ele>1567.0</ele><time>2026-04-12T14:08:58.988Z</time></trkpt><trkpt lat="46.11998707716057" lon="9.78834052608926"><ele>1567.0</ele><time>2026-04-12T14:08:59.988Z</time></trkpt><trkpt lat="46.11991198552508" lon="9.788229063455224"><ele>1567.0</ele><time>2026-04-12T14:09:00.988Z</time></trkpt><trkpt lat="46.11983820834815" lon="9.788120190615789"><ele>1567.0</ele><time>2026-04-12T14:09:01.988Z</time></trkpt><trkpt lat="46.11975190518315" lon="9.788054144804248"><ele>1567.0</ele><time>2026-04-12T14:09:02.988Z</time></trkpt><trkpt lat="46.11963037549383" lon="9.788040099838193"><ele>1566.75</ele><time>2026-04-12T14:09:04.987Z</time></trkpt><trkpt lat="46.11953521388567" lon="9.788065217749882"><ele>1566.5</ele><time>2026-04-12T14:09:05.987Z</time></trkpt><trkpt lat="46.11944249969335" lon="9.788067750695244"><ele>1566.25</ele><time>2026-04-12T14:09:06.987Z</time></trkpt><trkpt lat="46.119255417042915" lon="9.788069364995179"><ele>1566.0</ele><time>2026-04-12T14:09:08.987Z</time></trkpt><trkpt lat="46.11916532949038" lon="9.788102826738179"><ele>1566.0</ele><time>2026-04-12T14:09:09.987Z</time></trkpt><trkpt lat="46.11907112395705" lon="9.788117193702616"><ele>1566.0</ele><time>2026-04-12T14:09:10.987Z</time></trkpt><trkpt lat="46.11899894607966" lon="9.788162972479562"><ele>1566.0</ele><time>2026-04-12T14:09:11.987Z</time></trkpt><trkpt lat="46.118895243144664" lon="9.788293082633414"><ele>1566.0</ele><time>2026-04-12T14:09:13.987Z</time></trkpt><trkpt lat="46.11884585404884" lon="9.788387603940398"><ele>1566.0</ele><time>2026-04-12T14:09:14.987Z</time></trkpt><trkpt lat="46.1188207524171" lon="9.788487905289184"><ele>1561.5</ele><time>2026-04-12T14:09:15.987Z</time></trkpt><trkpt lat="46.11878372714092" lon="9.78863349842299"><ele>1557.0</ele><time>2026-04-12T14:09:16.987Z</time></trkpt><trkpt lat="46.11874539646997" lon="9.788783648759672"><ele>1552.5</ele><time>2026-04-12T14:09:17.987Z</time></trkpt><trkpt lat="46.11869131917857" lon="9.788944143534893"><ele>1548.0</ele><time>2026-04-12T14:09:18.987Z</time></trkpt><trkpt lat="46.118630103675294" lon="9.789091547273955"><ele>1548.0</ele><time>2026-04-12T14:09:19.987Z</time></trkpt><trkpt lat="46.11857966052123" lon="9.789211280027239"><ele>1548.0</ele><time>2026-04-12T14:09:20.987Z</time></trkpt><trkpt lat="46.118515437767705" lon="9.789331573900219"><ele>1548.0</ele><time>2026-04-12T14:09:21.987Z</time></trkpt><trkpt lat="46.1184453574449" lon="9.789442259897395"><ele>1548.0</ele><time>2026-04-12T14:09:22.987Z</time></trkpt><trkpt lat="46.118388150589055" lon="9.789585673444096"><ele>1548.0</ele><time>2026-04-12T14:09:23.987Z</time></trkpt><trkpt lat="46.11834339918375" lon="9.789735117825781"><ele>1546.0</ele><time>2026-04-12T14:09:24.987Z</time></trkpt><trkpt lat="46.11829410048434" lon="9.789901189984636"><ele>1544.0</ele><time>2026-04-12T14:09:25.987Z</time></trkpt><trkpt lat="46.11823162375227" lon="9.790080600682519"><ele>1542.0</ele><time>2026-04-12T14:09:26.987Z</time></trkpt><trkpt lat="46.11810489167687" lon="9.790171974303512"><ele>1540.0</ele><time>2026-04-12T14:09:27.987Z</time></trkpt><trkpt lat="46.11803513105083" lon="9.790399076720291"><ele>1546.2</ele><time>2026-04-12T14:09:29.987Z</time></trkpt><trkpt lat="46.11806483574048" lon="9.7906041902137"><ele>1552.4</ele><time>2026-04-12T14:09:30.987Z</time></trkpt><trkpt lat="46.11807123943428" lon="9.790737662900046"><ele>1558.6</ele><time>2026-04-12T14:09:31.987Z</time></trkpt><trkpt lat="46.11806382822424" lon="9.790836973790325"><ele>1564.8</ele><time>2026-04-12T14:09:32.987Z</time></trkpt><trkpt lat="46.11797940827193" lon="9.790957142080273"><ele>1571.0</ele><time>2026-04-12T14:09:34.987Z</time></trkpt><trkpt lat="46.11791004428118" lon="9.790975486462637"><ele>1570.9999999999998</ele><time>2026-04-12T14:09:35.987Z</time></trkpt><trkpt lat="46.11781000555104" lon="9.79100004958586"><ele>1571.0</ele><time>2026-04-12T14:09:36.987Z</time></trkpt><trkpt lat="46.11773400340029" lon="9.791004606575559"><ele>1571.0</ele><time>2026-04-12T14:09:37.987Z</time></trkpt><trkpt lat="46.11767389564116" lon="9.791069990535947"><ele>1571.0</ele><time>2026-04-12T14:09:38.987Z</time></trkpt><trkpt lat="46.11762986286172" lon="9.791159031947089"><ele>1570.9999999999998</ele><time>2026-04-12T14:09:39.987Z</time></trkpt><trkpt lat="46.117589924571924" lon="9.79123197418463"><ele>1571.0</ele><time>2026-04-12T14:09:41.987Z</time></trkpt><trkpt lat="46.11747187957103" lon="9.791162178091502"><ele>1574.8</ele><time>2026-04-12T14:09:43.987Z</time></trkpt><trkpt lat="46.117377218774955" lon="9.791088805428886"><ele>1578.6</ele><time>2026-04-12T14:09:44.987Z</time></trkpt><trkpt lat="46.11729153277464" lon="9.791015240032712"><ele>1582.4</ele><time>2026-04-12T14:09:45.987Z</time></trkpt><trkpt lat="46.11721088783437" lon="9.790957205520993"><ele>1586.2</ele><time>2026-04-12T14:09:46.987Z</time></trkpt><trkpt lat="46.11711036341076" lon="9.790930813369128"><ele>1590.0</ele><time>2026-04-12T14:09:47.987Z</time></trkpt><trkpt lat="46.11700118970361" lon="9.79095585092906"><ele>1590.0</ele><time>2026-04-12T14:09:48.987Z</time></trkpt><trkpt lat="46.116845563565356" lon="9.790977953581656"><ele>1590.0</ele><time>2026-04-12T14:09:52.987Z</time></trkpt><trkpt lat="46.11678787209764" lon="9.790913781684495"><ele>1590.0</ele><time>2026-04-12T14:09:53.987Z</time></trkpt><trkpt lat="46.11672135602265" lon="9.790871766137615"><ele>1590.0</ele><time>2026-04-12T14:09:54.987Z</time></trkpt><trkpt lat="46.11664578390835" lon="9.790832650708845"><ele>1590.0</ele><time>2026-04-12T14:09:55.987Z</time></trkpt><trkpt lat="46.11656109413259" lon="9.790832923654664"><ele>1591.1666666666667</ele><time>2026-04-12T14:09:57.987Z</time></trkpt><trkpt lat="46.11649696759977" lon="9.790811604814133"><ele>1592.3333333333335</ele><time>2026-04-12T14:09:58.987Z</time></trkpt><trkpt lat="46.116428774951174" lon="9.790768626142963"><ele>1593.5</ele><time>2026-04-12T14:09:59.987Z</time></trkpt><trkpt lat="46.11633682455759" lon="9.79074102698274"><ele>1594.6666666666667</ele><time>2026-04-12T14:10:00.987Z</time></trkpt><trkpt lat="46.1162422780386" lon="9.7907108232988"><ele>1595.8333333333335</ele><time>2026-04-12T14:10:01.987Z</time></trkpt><trkpt lat="46.116136535356496" lon="9.790685872102515"><ele>1597.0</ele><time>2026-04-12T14:10:02.987Z</time></trkpt><trkpt lat="46.115995805518374" lon="9.79069627291155"><ele>1597.0000000000002</ele><time>2026-04-12T14:10:03.987Z</time></trkpt><trkpt lat="46.11590227054036" lon="9.79072325375223"><ele>1597.0</ele><time>2026-04-12T14:10:04.987Z</time></trkpt><trkpt lat="46.11582937612035" lon="9.79072473841644"><ele>1597.0</ele><time>2026-04-12T14:10:05.987Z</time></trkpt><trkpt lat="46.11575997406807" lon="9.790688012723283"><ele>1597.0</ele><time>2026-04-12T14:10:06.987Z</time></trkpt><trkpt lat="46.115712156633585" lon="9.79060020932698"><ele>1597.0000000000002</ele><time>2026-04-12T14:10:07.987Z</time></trkpt><trkpt lat="46.115655245880674" lon="9.790508160425546"><ele>1597.0</ele><time>2026-04-12T14:10:08.987Z</time></trkpt><trkpt lat="46.11560043269227" lon="9.79043509113037"><ele>1600.6</ele><time>2026-04-12T14:10:09.987Z</time></trkpt><trkpt lat="46.11544826357756" lon="9.79042704155781"><ele>1604.1999999999998</ele><time>2026-04-12T14:10:11.987Z</time></trkpt><trkpt lat="46.11536013434124" lon="9.790424146656814"><ele>1607.8</ele><time>2026-04-12T14:10:12.987Z</time></trkpt><trkpt lat="46.11528364033838" lon="9.790401258613795"><ele>1611.4</ele><time>2026-04-12T14:10:13.987Z</time></trkpt><trkpt lat="46.11522297882865" lon="9.790353416360025"><ele>1615.0</ele><time>2026-04-12T14:10:15.987Z</time></trkpt><trkpt lat="46.115126644471395" lon="9.790288420163233"><ele>1615.0</ele><time>2026-04-12T14:10:17.987Z</time></trkpt><trkpt lat="46.115065457733074" lon="9.790263256554347"><ele>1615.0</ele><time>2026-04-12T14:10:18.987Z</time></trkpt><trkpt lat="46.1149659850243" lon="9.790228259297495"><ele>1615.0</ele><time>2026-04-12T14:10:19.987Z</time></trkpt><trkpt lat="46.11482996399146" lon="9.790222275055534"><ele>1615.0</ele><time>2026-04-12T14:10:20.987Z</time></trkpt><trkpt lat="46.11470089245556" lon="9.790239482228749"><ele>1615.0</ele><time>2026-04-12T14:10:21.987Z</time></trkpt><trkpt lat="46.11458895486033" lon="9.790239380078027"><ele>1615.75</ele><time>2026-04-12T14:10:22.987Z</time></trkpt><trkpt lat="46.114478866061845" lon="9.790248775780722"><ele>1616.5</ele><time>2026-04-12T14:10:23.987Z</time></trkpt><trkpt lat="46.114375832028884" lon="9.790250527016228"><ele>1617.25</ele><time>2026-04-12T14:10:24.987Z</time></trkpt><trkpt lat="46.11425330986707" lon="9.790264138684567"><ele>1618.0</ele><time>2026-04-12T14:10:25.987Z</time></trkpt><trkpt lat="46.11414229858791" lon="9.790346647605238"><ele>1612.2</ele><time>2026-04-12T14:10:26.987Z</time></trkpt><trkpt lat="46.11405193448153" lon="9.790442189940896"><ele>1606.4</ele><time>2026-04-12T14:10:27.987Z</time></trkpt><trkpt lat="46.11396106690322" lon="9.790484064305508"><ele>1600.6000000000001</ele><time>2026-04-12T14:10:28.987Z</time></trkpt><trkpt lat="46.1138742801319" lon="9.79050072140164"><ele>1594.8000000000002</ele><time>2026-04-12T14:10:29.987Z</time></trkpt><trkpt lat="46.11378875057834" lon="9.79047806144624"><ele>1589.0</ele><time>2026-04-12T14:10:31.987Z</time></trkpt><trkpt lat="46.11361201881593" lon="9.790503276805214"><ele>1589.0</ele><time>2026-04-12T14:10:34.986Z</time></trkpt><trkpt lat="46.113537387298024" lon="9.790562137899315"><ele>1589.0</ele><time>2026-04-12T14:10:35.986Z</time></trkpt><trkpt lat="46.11347281810997" lon="9.790654289141697"><ele>1589.0</ele><time>2026-04-12T14:10:36.986Z</time></trkpt><trkpt lat="46.11342677446133" lon="9.79077824850972"><ele>1589.0</ele><time>2026-04-12T14:10:37.986Z</time></trkpt><trkpt lat="46.11332563568172" lon="9.790896692485875"><ele>1589.0</ele><time>2026-04-12T14:10:38.986Z</time></trkpt><trkpt lat="46.113240717890505" lon="9.79101385342847"><ele>1595.25</ele><time>2026-04-12T14:10:39.986Z</time></trkpt><trkpt lat="46.113138697621395" lon="9.791077474725194"><ele>1601.5</ele><time>2026-04-12T14:10:40.986Z</time></trkpt><trkpt lat="46.113014593703745" lon="9.791166875734993"><ele>1607.75</ele><time>2026-04-12T14:10:41.986Z</time></trkpt><trkpt lat="46.112881857302725" lon="9.791204131428609"><ele>1614.0</ele><time>2026-04-12T14:10:42.986Z</time></trkpt><trkpt lat="46.11273704796734" lon="9.791235964957764"><ele>1614.0</ele><time>2026-04-12T14:10:43.986Z</time></trkpt><trkpt lat="46.11259816948101" lon="9.791222387299182"><ele>1614.0</ele><time>2026-04-12T14:10:44.986Z</time></trkpt><trkpt lat="46.11244720927216" lon="9.791210736102942"><ele>1614.0</ele><time>2026-04-12T14:10:45.986Z</time></trkpt><trkpt lat="46.11230392772988" lon="9.791169676563044"><ele>1614.0</ele><time>2026-04-12T14:10:46.986Z</time></trkpt><trkpt lat="46.11216180129987" lon="9.791103660168213"><ele>1613.0</ele><time>2026-04-12T14:10:47.986Z</time></trkpt><trkpt lat="46.11204114192044" lon="9.791103094600418"><ele>1612.0</ele><time>2026-04-12T14:10:48.986Z</time></trkpt><trkpt lat="46.11189191093854" lon="9.791110927178778"><ele>1611.0</ele><time>2026-04-12T14:10:49.986Z</time></trkpt><trkpt lat="46.111776477232965" lon="9.791140992298091"><ele>1610.0</ele><time>2026-04-12T14:10:50.986Z</time></trkpt><trkpt lat="46.111642872515965" lon="9.791176739370712"><ele>1611.6666666666665</ele><time>2026-04-12T14:10:51.986Z</time></trkpt><trkpt lat="46.11152081868436" lon="9.791233638460595"><ele>1613.3333333333335</ele><time>2026-04-12T14:10:52.986Z</time></trkpt><trkpt lat="46.111289270770705" lon="9.79130794089808"><ele>1615.0</ele><time>2026-04-12T14:10:54.998Z</time></trkpt><trkpt lat="46.11113023522549" lon="9.791305067967398"><ele>1615.0</ele><time>2026-04-12T14:10:55.998Z</time></trkpt><trkpt lat="46.110994502766985" lon="9.791303506275401"><ele>1615.0</ele><time>2026-04-12T14:10:56.998Z</time></trkpt><trkpt lat="46.11085456745465" lon="9.791324535235313"><ele>1615.0</ele><time>2026-04-12T14:10:57.998Z</time></trkpt><trkpt lat="46.11072878666299" lon="9.791335435797782"><ele>1615.0</ele><time>2026-04-12T14:10:58.998Z</time></trkpt><trkpt lat="46.11060718845428" lon="9.791335931176073"><ele>1614.2</ele><time>2026-04-12T14:10:59.998Z</time></trkpt><trkpt lat="46.11049981793441" lon="9.791338830381578"><ele>1613.4</ele><time>2026-04-12T14:11:00.998Z</time></trkpt><trkpt lat="46.11039848858469" lon="9.791340567606259"><ele>1612.6</ele><time>2026-04-12T14:11:01.998Z</time></trkpt><trkpt lat="46.11029372498409" lon="9.791349263550918"><ele>1611.8</ele><time>2026-04-12T14:11:02.998Z</time></trkpt><trkpt lat="46.110183730657695" lon="9.791368957734587"><ele>1611.0</ele><time>2026-04-12T14:11:03.998Z</time></trkpt><trkpt lat="46.110094616680236" lon="9.791415308098356"><ele>1611.0</ele><time>2026-04-12T14:11:05.998Z</time></trkpt><trkpt lat="46.11000596213204" lon="9.79135865331827"><ele>1611.0</ele><time>2026-04-12T14:11:07.998Z</time></trkpt><trkpt lat="46.109944516483544" lon="9.791320081885571"><ele>1611.0</ele><time>2026-04-12T14:11:08.998Z</time></trkpt><trkpt lat="46.109859082702684" lon="9.791248127106654"><ele>1611.0</ele><time>2026-04-12T14:11:09.998Z</time></trkpt><trkpt lat="46.10977292495713" lon="9.791194498699912"><ele>1611.0</ele><time>2026-04-12T14:11:10.998Z</time></trkpt><trkpt lat="46.10968350857924" lon="9.791151320305493"><ele>1612.25</ele><time>2026-04-12T14:11:11.998Z</time></trkpt><trkpt lat="46.10960117585754" lon="9.791107897862906"><ele>1613.5</ele><time>2026-04-12T14:11:12.998Z</time></trkpt><trkpt lat="46.109511734096074" lon="9.791106718552692"><ele>1614.75</ele><time>2026-04-12T14:11:13.998Z</time></trkpt><trkpt lat="46.10930331382958" lon="9.791126500903207"><ele>1616.0</ele><time>2026-04-12T14:11:16.998Z</time></trkpt><trkpt lat="46.10922771266692" lon="9.791114271825016"><ele>1616.0</ele><time>2026-04-12T14:11:18.998Z</time></trkpt><trkpt lat="46.10915883177475" lon="9.79105214577871"><ele>1616.0</ele><time>2026-04-12T14:11:21.998Z</time></trkpt><trkpt lat="46.10907168812013" lon="9.790989368138183"><ele>1616.0</ele><time>2026-04-12T14:11:23.998Z</time></trkpt><trkpt lat="46.109000099481555" lon="9.790916100366372"><ele>1616.0</ele><time>2026-04-12T14:11:25.998Z</time></trkpt><trkpt lat="46.10892323950994" lon="9.790797864626462"><ele>1616.0</ele><time>2026-04-12T14:11:27.998Z</time></trkpt><trkpt lat="46.10884791931036" lon="9.790665895056867"><ele>1609.5</ele><time>2026-04-12T14:11:29.998Z</time></trkpt><trkpt lat="46.10874323577682" lon="9.790560580894118"><ele>1603.0</ele><time>2026-04-12T14:11:31.998Z</time></trkpt><trkpt lat="46.10866474297612" lon="9.790391795197994"><ele>1596.5</ele><time>2026-04-12T14:11:33.998Z</time></trkpt><trkpt lat="46.108581053063475" lon="9.790355784399273"><ele>1590.0</ele><time>2026-04-12T14:11:34.998Z</time></trkpt><trkpt lat="46.10841526104649" lon="9.790287149819891"><ele>1590.0</ele><time>2026-04-12T14:11:36.998Z</time></trkpt><trkpt lat="46.10834518711349" lon="9.790258781893813"><ele>1590.0</ele><time>2026-04-12T14:11:37.998Z</time></trkpt><trkpt lat="46.10823029060112" lon="9.790293841826992"><ele>1590.0</ele><time>2026-04-12T14:11:39.998Z</time></trkpt><trkpt lat="46.10817357357221" lon="9.790363337847415"><ele>1590.0</ele><time>2026-04-12T14:11:40.998Z</time></trkpt><trkpt lat="46.10811824372593" lon="9.790423636185308"><ele>1590.0</ele><time>2026-04-12T14:11:42Z</time></trkpt><trkpt lat="46.108052785715" lon="9.790424417090383"><ele>1590.0</ele><time>2026-04-12T14:11:43Z</time></trkpt><trkpt lat="46.10796036053814" lon="9.790381368948603"><ele>1589.6</ele><time>2026-04-12T14:11:44Z</time></trkpt><trkpt lat="46.107852682617626" lon="9.790323221745004"><ele>1589.2</ele><time>2026-04-12T14:11:44.999Z</time></trkpt><trkpt lat="46.107740512266204" lon="9.790204121587587"><ele>1588.8000000000002</ele><time>2026-04-12T14:11:46.999Z</time></trkpt><trkpt lat="46.10766392486405" lon="9.790141025969186"><ele>1588.4</ele><time>2026-04-12T14:11:47.999Z</time></trkpt><trkpt lat="46.10758851990655" lon="9.79006505804754"><ele>1588.0</ele><time>2026-04-12T14:11:48.999Z</time></trkpt><trkpt lat="46.10752668115981" lon="9.79000503447671"><ele>1583.4</ele><time>2026-04-12T14:11:50.999Z</time></trkpt><trkpt lat="46.10741307587305" lon="9.789956560136403"><ele>1578.8000000000002</ele><time>2026-04-12T14:11:52.999Z</time></trkpt><trkpt lat="46.1073240136447" lon="9.789897514543753"><ele>1574.2</ele><time>2026-04-12T14:11:53.999Z</time></trkpt><trkpt lat="46.107245913874166" lon="9.789823718025588"><ele>1569.6</ele><time>2026-04-12T14:11:54.999Z</time></trkpt><trkpt lat="46.10718408038311" lon="9.789788140329538"><ele>1565.0</ele><time>2026-04-12T14:11:55.999Z</time></trkpt><trkpt lat="46.10699834643795" lon="9.789710040733857"><ele>1564.9999999999998</ele><time>2026-04-12T14:11:57.999Z</time></trkpt><trkpt lat="46.10692820057272" lon="9.789669911404358"><ele>1565.0</ele><time>2026-04-12T14:11:58.999Z</time></trkpt><trkpt lat="46.106853775691036" lon="9.789645897242858"><ele>1565.0</ele><time>2026-04-12T14:11:59.999Z</time></trkpt><trkpt lat="46.1067881297339" lon="9.789669605916131"><ele>1565.0</ele><time>2026-04-12T14:12:00.999Z</time></trkpt><trkpt lat="46.10671438983503" lon="9.78972387375406"><ele>1564.9999999999998</ele><time>2026-04-12T14:12:01.999Z</time></trkpt><trkpt lat="46.10662774622765" lon="9.789766307354913"><ele>1565.0</ele><time>2026-04-12T14:12:02.999Z</time></trkpt><trkpt lat="46.10653396881558" lon="9.789775808259003"><ele>1564.6666666666665</ele><time>2026-04-12T14:12:03.999Z</time></trkpt><trkpt lat="46.1064304802348" lon="9.789782509826713"><ele>1564.3333333333333</ele><time>2026-04-12T14:12:04.999Z</time></trkpt><trkpt lat="46.10635517210409" lon="9.789779989306089"><ele>1564.0</ele><time>2026-04-12T14:12:05.999Z</time></trkpt><trkpt lat="46.106270518917775" lon="9.789766838200766"><ele>1563.6666666666665</ele><time>2026-04-12T14:12:06.999Z</time></trkpt><trkpt lat="46.10618169877556" lon="9.789740909330124"><ele>1563.3333333333333</ele><time>2026-04-12T14:12:07.999Z</time></trkpt><trkpt lat="46.10610312122975" lon="9.789690302530843"><ele>1563.0</ele><time>2026-04-12T14:12:08.999Z</time></trkpt><trkpt lat="46.10603606166518" lon="9.78963942971092"><ele>1563.0</ele><time>2026-04-12T14:12:09.999Z</time></trkpt><trkpt lat="46.1059686309643" lon="9.7895709212939"><ele>1563.0</ele><time>2026-04-12T14:12:11.999Z</time></trkpt><trkpt lat="46.1060566532919" lon="9.789536662008834"><ele>1563.0</ele><time>2026-04-12T14:12:16.999Z</time></trkpt><trkpt lat="46.106111794564505" lon="9.789367798295817"><ele>1563.0</ele><time>2026-04-12T14:12:25.998Z</time></trkpt><trkpt lat="46.10618172883278" lon="9.789305175172299"><ele>1563.0</ele><time>2026-04-12T14:12:29.998Z</time></trkpt><trkpt lat="46.10625841800334" lon="9.78927304736885"><ele>1554.5</ele><time>2026-04-12T14:12:34.998Z</time></trkpt><trkpt lat="46.106233338476635" lon="9.789172710083092"><ele>1546.0</ele><time>2026-04-12T14:12:37.998Z</time></trkpt><trkpt lat="46.10604799735117" lon="9.789002247196054"><ele>1537.5</ele><time>2026-04-12T14:12:41.998Z</time></trkpt><trkpt lat="46.10601479867701" lon="9.788910463728149"><ele>1529.0</ele><time>2026-04-12T14:12:43.998Z</time></trkpt><trkpt lat="46.105915795625016" lon="9.78887848511558"><ele>1529.0</ele><time>2026-04-12T14:12:45.998Z</time></trkpt><trkpt lat="46.105834872458914" lon="9.78885938461307"><ele>1529.0</ele><time>2026-04-12T14:12:47.998Z</time></trkpt><trkpt lat="46.10572427462163" lon="9.788876057866426"><ele>1529.0</ele><time>2026-04-12T14:12:49.998Z</time></trkpt><trkpt lat="46.10561506426339" lon="9.788868529983542"><ele>1529.0</ele><time>2026-04-12T14:12:50.998Z</time></trkpt><trkpt lat="46.10552635978577" lon="9.788904160187474"><ele>1529.0</ele><time>2026-04-12T14:12:51.998Z</time></trkpt><trkpt lat="46.10542198648432" lon="9.788970226358707"><ele>1526.8000000000002</ele><time>2026-04-12T14:12:52.998Z</time></trkpt><trkpt lat="46.10532022981075" lon="9.789006243870558"><ele>1524.6000000000001</ele><time>2026-04-12T14:12:53.998Z</time></trkpt><trkpt lat="46.10522952092399" lon="9.789053701939121"><ele>1522.4</ele><time>2026-04-12T14:12:54.998Z</time></trkpt><trkpt lat="46.105142824200826" lon="9.789102473782279"><ele>1520.2</ele><time>2026-04-12T14:12:55.998Z</time></trkpt><trkpt lat="46.10506954790148" lon="9.789143433991281"><ele>1518.0</ele><time>2026-04-12T14:12:56.998Z</time></trkpt><trkpt lat="46.10498055952534" lon="9.789199254261037"><ele>1511.0</ele><time>2026-04-12T14:12:58.998Z</time></trkpt><trkpt lat="46.10476338324029" lon="9.7892583548199"><ele>1504.0</ele><time>2026-04-12T14:13:02.998Z</time></trkpt><trkpt lat="46.10464735918057" lon="9.789296459405318"><ele>1497.0</ele><time>2026-04-12T14:13:04.998Z</time></trkpt><trkpt lat="46.104561419885435" lon="9.78929812721484"><ele>1490.0</ele><time>2026-04-12T14:13:05.998Z</time></trkpt><trkpt lat="46.10446840458016" lon="9.789297309164574"><ele>1490.0</ele><time>2026-04-12T14:13:07.998Z</time></trkpt><trkpt lat="46.104365937146596" lon="9.78930769515437"><ele>1490.0</ele><time>2026-04-12T14:13:09.998Z</time></trkpt><trkpt lat="46.10428346047972" lon="9.789330303113793"><ele>1490.0</ele><time>2026-04-12T14:13:11.998Z</time></trkpt><trkpt lat="46.10419478751291" lon="9.789394404382605"><ele>1490.0</ele><time>2026-04-12T14:13:14.998Z</time></trkpt><trkpt lat="46.104115509974186" lon="9.789440687679068"><ele>1490.0</ele><time>2026-04-12T14:13:16.998Z</time></trkpt><trkpt lat="46.10402103684343" lon="9.789443377085002"><ele>1489.0</ele><time>2026-04-12T14:13:18.998Z</time></trkpt><trkpt lat="46.10395765585447" lon="9.789397237087043"><ele>1488.0</ele><time>2026-04-12T14:13:20.998Z</time></trkpt><trkpt lat="46.10380121468506" lon="9.789244267570266"><ele>1487.0</ele><time>2026-04-12T14:13:26.998Z</time></trkpt><trkpt lat="46.10376938943315" lon="9.789161520054536"><ele>1486.0</ele><time>2026-04-12T14:13:28.998Z</time></trkpt><trkpt lat="46.103719782108" lon="9.789069441304816"><ele>1485.0</ele><time>2026-04-12T14:13:30.998Z</time></trkpt><trkpt lat="46.10366717049458" lon="9.789010730460994"><ele>1485.0</ele><time>2026-04-12T14:13:32.998Z</time></trkpt><trkpt lat="46.10360287023368" lon="9.789035701538845"><ele>1485.0</ele><time>2026-04-12T14:13:35.998Z</time></trkpt><trkpt lat="46.10352326958116" lon="9.789040292128966"><ele>1485.0</ele><time>2026-04-12T14:13:38.998Z</time></trkpt><trkpt lat="46.10344739420432" lon="9.789021774612076"><ele>1485.0</ele><time>2026-04-12T14:13:41.998Z</time></trkpt><trkpt lat="46.10331366761375" lon="9.789021786720715"><ele>1485.0</ele><time>2026-04-12T14:13:50Z</time></trkpt><trkpt lat="46.10324153544762" lon="9.789048953237337"><ele>1485.0</ele><time>2026-04-12T14:13:52.999Z</time></trkpt><trkpt lat="46.10316250432205" lon="9.789026813991205"><ele>1485.3333333333333</ele><time>2026-04-12T14:13:57Z</time></trkpt><trkpt lat="46.10310252173057" lon="9.788992463472184"><ele>1485.6666666666667</ele><time>2026-04-12T14:13:59Z</time></trkpt><trkpt lat="46.103021573718365" lon="9.78898072049243"><ele>1486.0</ele><time>2026-04-12T14:14:01Z</time></trkpt><trkpt lat="46.10295287993731" lon="9.788989073963585"><ele>1486.3333333333335</ele><time>2026-04-12T14:15:40.999Z</time></trkpt><trkpt lat="46.102809891234145" lon="9.788930465255726"><ele>1486.6666666666667</ele><time>2026-04-12T14:15:46.999Z</time></trkpt><trkpt lat="46.102756827254204" lon="9.788881312087158"><ele>1487.0</ele><time>2026-04-12T14:15:48.999Z</time></trkpt><trkpt lat="46.10270994682359" lon="9.789010480697055"><ele>1487.0</ele><time>2026-04-12T14:15:51.999Z</time></trkpt><trkpt lat="46.10269343644148" lon="9.789155982605038"><ele>1487.0</ele><time>2026-04-12T14:15:53.999Z</time></trkpt><trkpt lat="46.10269663477897" lon="9.789258124927997"><ele>1487.0</ele><time>2026-04-12T14:15:55.999Z</time></trkpt><trkpt lat="46.10273687471087" lon="9.78937055787488"><ele>1487.0</ele><time>2026-04-12T14:15:57.999Z</time></trkpt><trkpt lat="46.10282656977273" lon="9.789424395144943"><ele>1487.0</ele><time>2026-04-12T14:15:59.999Z</time></trkpt><trkpt lat="46.102918478063536" lon="9.789452471501242"><ele>1487.6666666666667</ele><time>2026-04-12T14:16:01.999Z</time></trkpt><trkpt lat="46.10306201027143" lon="9.789456061560921"><ele>1488.3333333333333</ele><time>2026-04-12T14:16:36.998Z</time></trkpt><trkpt lat="46.1032544699177" lon="9.789250191868469"><ele>1489.0</ele><time>2026-04-12T14:17:57.998Z</time></trkpt><trkpt lat="46.10332024012798" lon="9.78915417436916"><ele>1488.6</ele><time>2026-04-12T14:18:00.999Z</time></trkpt><trkpt lat="46.10336571530116" lon="9.789057486988074"><ele>1488.2</ele><time>2026-04-12T14:18:03.999Z</time></trkpt><trkpt lat="46.103286580319526" lon="9.789054337017564"><ele>1487.8</ele><time>2026-04-12T14:18:12.999Z</time></trkpt><trkpt lat="46.103219685995555" lon="9.788870239424117"><ele>1487.3999999999999</ele><time>2026-04-12T14:18:20.999Z</time></trkpt><trkpt lat="46.10319225914124" lon="9.788756886588299"><ele>1487.0</ele><time>2026-04-12T14:18:23.999Z</time></trkpt><trkpt lat="46.10320504447207" lon="9.78866545593288"><ele>1487.0</ele><time>2026-04-12T14:18:28.999Z</time></trkpt><trkpt lat="46.10314383359715" lon="9.788642275582038"><ele>1487.0</ele><time>2026-04-12T14:18:30.999Z</time></trkpt><trkpt lat="46.10308017029868" lon="9.78865284435971"><ele>1487.0</ele><time>2026-04-12T14:18:32.999Z</time></trkpt><trkpt lat="46.10300172645639" lon="9.788636549884517"><ele>1487.0</ele><time>2026-04-12T14:18:35.999Z</time></trkpt><trkpt lat="46.1028716399384" lon="9.788538316396894"><ele>1487.0</ele><time>2026-04-12T14:18:46.998Z</time></trkpt><trkpt lat="46.10294557137919" lon="9.788590949672704"><ele>1487.0</ele><time>2026-04-12T14:18:56.998Z</time></trkpt><trkpt lat="46.10310673881271" lon="9.788666860983577"><ele>1487.0</ele><time>2026-04-12T14:19:01.998Z</time></trkpt><trkpt lat="46.103178217864034" lon="9.788669533619847"><ele>1487.0</ele><time>2026-04-12T14:19:04.998Z</time></trkpt><trkpt lat="46.10323840534793" lon="9.788703546780464"><ele>1487.0</ele><time>2026-04-12T14:19:07.998Z</time></trkpt><trkpt lat="46.103314709589185" lon="9.788712930886902"><ele>1485.0</ele><time>2026-04-12T14:19:10.998Z</time></trkpt><trkpt lat="46.10338955569815" lon="9.788680149813684"><ele>1485.0</ele><time>2026-04-12T14:19:13.998Z</time></trkpt><trkpt lat="46.10344754063804" lon="9.788616879593407"><ele>1485.0</ele><time>2026-04-12T14:19:16.998Z</time></trkpt><trkpt lat="46.10349567612435" lon="9.788540717198234"><ele>1485.0</ele><time>2026-04-12T14:19:19.998Z</time></trkpt></trkseg><trkseg><trkpt lat="46.15459391576302" lon="9.761981884508979"><ele>273.0</ele><time>2026-04-12T15:24:35.038Z</time></trkpt><trkpt lat="46.154640543535024" lon="9.76191936294927"><ele>273.0</ele><time>2026-04-12T15:24:38.001Z</time></trkpt><trkpt lat="46.15468818891019" lon="9.761838159445647"><ele>271.0</ele><time>2026-04-12T15:24:40.001Z</time></trkpt></trkseg></trk></gpx>